<?xml version="1.0" encoding="UTF-8" standalone="no" ?>
<gpx xmlns="http://www.topografix.com/GPX/1/1" xmlns:xsi="http://www.w3.org/2001/XMLSchema-instance" xsi:schemaLocation="http://www.topografix.com/GPX/1/1 http://www.topografix.com/GPX/1/1/gpx.xsd" version="1.1" creator="VisuGPX - https://www.visugpx.com">
  <metadata>
    <name>12 - St Pierre de Boeuf</name>
  </metadata>
  <trk>
    <name><![CDATA[20181017173448-1sPKU]]></name>
    <trkseg>
      <trkpt lat="45.38431" lon="4.75026">
        <ele>88.1</ele>
        <time>2018-10-17T07:03:32Z</time>
      </trkpt>
      <trkpt lat="45.38435" lon="4.75028">
        <ele>89.54</ele>
        <time>2018-10-17T07:03:34Z</time>
      </trkpt>
      <trkpt lat="45.38438" lon="4.75028">
        <ele>88.1</ele>
        <time>2018-10-17T07:03:43Z</time>
      </trkpt>
      <trkpt lat="45.38434" lon="4.75029">
        <ele>93.39</ele>
        <time>2018-10-17T07:03:57Z</time>
      </trkpt>
      <trkpt lat="45.38433" lon="4.75029">
        <ele>97.71</ele>
        <time>2018-10-17T07:03:59Z</time>
      </trkpt>
      <trkpt lat="45.38432" lon="4.75029">
        <ele>101.08</ele>
        <time>2018-10-17T07:04:01Z</time>
      </trkpt>
      <trkpt lat="45.3843" lon="4.75028">
        <ele>105.4</ele>
        <time>2018-10-17T07:04:04Z</time>
      </trkpt>
      <trkpt lat="45.38429" lon="4.75026">
        <ele>105.88</ele>
        <time>2018-10-17T07:04:06Z</time>
      </trkpt>
      <trkpt lat="45.38429" lon="4.75026">
        <ele>111.17</ele>
        <time>2018-10-17T07:04:07Z</time>
      </trkpt>
      <trkpt lat="45.38427" lon="4.75022">
        <ele>115.01</ele>
        <time>2018-10-17T07:04:12Z</time>
      </trkpt>
      <trkpt lat="45.38428" lon="4.75021">
        <ele>118.86</ele>
        <time>2018-10-17T07:04:16Z</time>
      </trkpt>
      <trkpt lat="45.38427" lon="4.75021">
        <ele>122.71</ele>
        <time>2018-10-17T07:04:21Z</time>
      </trkpt>
      <trkpt lat="45.38428" lon="4.7502">
        <ele>126.07</ele>
        <time>2018-10-17T07:04:29Z</time>
      </trkpt>
      <trkpt lat="45.38432" lon="4.7502">
        <ele>129.92</ele>
        <time>2018-10-17T07:04:35Z</time>
      </trkpt>
      <trkpt lat="45.38429" lon="4.75021">
        <ele>132.32</ele>
        <time>2018-10-17T07:04:43Z</time>
      </trkpt>
      <trkpt lat="45.38427" lon="4.75023">
        <ele>135.2</ele>
        <time>2018-10-17T07:04:51Z</time>
      </trkpt>
      <trkpt lat="45.38428" lon="4.75025">
        <ele>138.57</ele>
        <time>2018-10-17T07:04:57Z</time>
      </trkpt>
      <trkpt lat="45.38426" lon="4.75028">
        <ele>139.53</ele>
        <time>2018-10-17T07:05:10Z</time>
      </trkpt>
      <trkpt lat="45.38425" lon="4.75024">
        <ele>140.97</ele>
        <time>2018-10-17T07:05:27Z</time>
      </trkpt>
      <trkpt lat="45.38426" lon="4.75022">
        <ele>141.45</ele>
        <time>2018-10-17T07:05:43Z</time>
      </trkpt>
      <trkpt lat="45.38425" lon="4.7502">
        <ele>142.89</ele>
        <time>2018-10-17T07:06:04Z</time>
      </trkpt>
      <trkpt lat="45.38425" lon="4.75018">
        <ele>142.89</ele>
        <time>2018-10-17T07:06:25Z</time>
      </trkpt>
      <trkpt lat="45.38424" lon="4.75018">
        <ele>142.89</ele>
        <time>2018-10-17T07:06:43Z</time>
      </trkpt>
      <trkpt lat="45.38423" lon="4.75019">
        <ele>142.89</ele>
        <time>2018-10-17T07:07:02Z</time>
      </trkpt>
      <trkpt lat="45.38423" lon="4.75019">
        <ele>142.89</ele>
        <time>2018-10-17T07:07:23Z</time>
      </trkpt>
      <trkpt lat="45.38422" lon="4.75019">
        <ele>142.89</ele>
        <time>2018-10-17T07:07:43Z</time>
      </trkpt>
      <trkpt lat="45.38422" lon="4.75019">
        <ele>142.89</ele>
        <time>2018-10-17T07:07:56Z</time>
      </trkpt>
      <trkpt lat="45.38423" lon="4.7502">
        <ele>142.41</ele>
        <time>2018-10-17T07:08:05Z</time>
      </trkpt>
      <trkpt lat="45.38424" lon="4.75023">
        <ele>142.89</ele>
        <time>2018-10-17T07:08:21Z</time>
      </trkpt>
      <trkpt lat="45.38428" lon="4.75025">
        <ele>142.89</ele>
        <time>2018-10-17T07:08:34Z</time>
      </trkpt>
      <trkpt lat="45.38428" lon="4.75025">
        <ele>142.89</ele>
        <time>2018-10-17T07:08:50Z</time>
      </trkpt>
      <trkpt lat="45.3843" lon="4.75023">
        <ele>142.89</ele>
        <time>2018-10-17T07:09:04Z</time>
      </trkpt>
      <trkpt lat="45.38432" lon="4.75022">
        <ele>142.89</ele>
        <time>2018-10-17T07:09:15Z</time>
      </trkpt>
      <trkpt lat="45.38432" lon="4.75021">
        <ele>142.89</ele>
        <time>2018-10-17T07:09:29Z</time>
      </trkpt>
      <trkpt lat="45.3843" lon="4.7502">
        <ele>142.89</ele>
        <time>2018-10-17T07:09:43Z</time>
      </trkpt>
      <trkpt lat="45.3843" lon="4.7502">
        <ele>142.89</ele>
        <time>2018-10-17T07:10:02Z</time>
      </trkpt>
      <trkpt lat="45.3843" lon="4.7502">
        <ele>142.89</ele>
        <time>2018-10-17T07:10:14Z</time>
      </trkpt>
      <trkpt lat="45.38431" lon="4.7502">
        <ele>142.89</ele>
        <time>2018-10-17T07:10:26Z</time>
      </trkpt>
      <trkpt lat="45.38432" lon="4.7502">
        <ele>142.89</ele>
        <time>2018-10-17T07:10:41Z</time>
      </trkpt>
      <trkpt lat="45.38433" lon="4.75021">
        <ele>142.89</ele>
        <time>2018-10-17T07:11:02Z</time>
      </trkpt>
      <trkpt lat="45.38433" lon="4.75027">
        <ele>142.89</ele>
        <time>2018-10-17T07:11:17Z</time>
      </trkpt>
      <trkpt lat="45.38433" lon="4.7503">
        <ele>142.89</ele>
        <time>2018-10-17T07:11:31Z</time>
      </trkpt>
      <trkpt lat="45.38434" lon="4.75029">
        <ele>142.89</ele>
        <time>2018-10-17T07:11:44Z</time>
      </trkpt>
      <trkpt lat="45.38434" lon="4.75029">
        <ele>142.41</ele>
        <time>2018-10-17T07:12:00Z</time>
      </trkpt>
      <trkpt lat="45.38435" lon="4.75028">
        <ele>142.41</ele>
        <time>2018-10-17T07:12:20Z</time>
      </trkpt>
      <trkpt lat="45.38434" lon="4.75027">
        <ele>142.89</ele>
        <time>2018-10-17T07:12:36Z</time>
      </trkpt>
      <trkpt lat="45.38434" lon="4.75027">
        <ele>142.41</ele>
        <time>2018-10-17T07:12:55Z</time>
      </trkpt>
      <trkpt lat="45.38434" lon="4.75026">
        <ele>142.41</ele>
        <time>2018-10-17T07:13:14Z</time>
      </trkpt>
      <trkpt lat="45.38434" lon="4.75025">
        <ele>142.41</ele>
        <time>2018-10-17T07:13:33Z</time>
      </trkpt>
      <trkpt lat="45.38433" lon="4.75023">
        <ele>142.89</ele>
        <time>2018-10-17T07:13:51Z</time>
      </trkpt>
      <trkpt lat="45.38431" lon="4.75022">
        <ele>142.89</ele>
        <time>2018-10-17T07:14:13Z</time>
      </trkpt>
      <trkpt lat="45.38431" lon="4.75022">
        <ele>142.41</ele>
        <time>2018-10-17T07:14:37Z</time>
      </trkpt>
      <trkpt lat="45.38427" lon="4.75021">
        <ele>142.41</ele>
        <time>2018-10-17T07:14:52Z</time>
      </trkpt>
      <trkpt lat="45.38421" lon="4.75021">
        <ele>142.41</ele>
        <time>2018-10-17T07:15:09Z</time>
      </trkpt>
      <trkpt lat="45.3842" lon="4.75022">
        <ele>142.41</ele>
        <time>2018-10-17T07:15:29Z</time>
      </trkpt>
      <trkpt lat="45.38408" lon="4.75023">
        <ele>142.89</ele>
        <time>2018-10-17T07:15:46Z</time>
      </trkpt>
      <trkpt lat="45.38408" lon="4.75023">
        <ele>142.89</ele>
        <time>2018-10-17T07:16:07Z</time>
      </trkpt>
      <trkpt lat="45.38408" lon="4.75023">
        <ele>142.89</ele>
        <time>2018-10-17T07:16:27Z</time>
      </trkpt>
      <trkpt lat="45.38407" lon="4.75024">
        <ele>142.89</ele>
        <time>2018-10-17T07:16:50Z</time>
      </trkpt>
      <trkpt lat="45.38407" lon="4.75024">
        <ele>142.89</ele>
        <time>2018-10-17T07:17:14Z</time>
      </trkpt>
      <trkpt lat="45.38407" lon="4.75024">
        <ele>142.41</ele>
        <time>2018-10-17T07:17:34Z</time>
      </trkpt>
      <trkpt lat="45.3841" lon="4.75024">
        <ele>142.89</ele>
        <time>2018-10-17T07:17:48Z</time>
      </trkpt>
      <trkpt lat="45.38415" lon="4.75028">
        <ele>142.41</ele>
        <time>2018-10-17T07:18:03Z</time>
      </trkpt>
      <trkpt lat="45.38419" lon="4.75028">
        <ele>142.41</ele>
        <time>2018-10-17T07:18:19Z</time>
      </trkpt>
      <trkpt lat="45.38421" lon="4.75026">
        <ele>142.41</ele>
        <time>2018-10-17T07:18:37Z</time>
      </trkpt>
      <trkpt lat="45.38428" lon="4.75018">
        <ele>142.41</ele>
        <time>2018-10-17T07:18:49Z</time>
      </trkpt>
      <trkpt lat="45.38428" lon="4.75017">
        <ele>142.41</ele>
        <time>2018-10-17T07:19:03Z</time>
      </trkpt>
      <trkpt lat="45.38429" lon="4.75016">
        <ele>142.41</ele>
        <time>2018-10-17T07:19:18Z</time>
      </trkpt>
      <trkpt lat="45.38429" lon="4.75017">
        <ele>142.89</ele>
        <time>2018-10-17T07:19:36Z</time>
      </trkpt>
      <trkpt lat="45.3843" lon="4.75017">
        <ele>142.89</ele>
        <time>2018-10-17T07:20:04Z</time>
      </trkpt>
      <trkpt lat="45.3843" lon="4.75017">
        <ele>142.41</ele>
        <time>2018-10-17T07:20:18Z</time>
      </trkpt>
      <trkpt lat="45.3843" lon="4.75016">
        <ele>142.41</ele>
        <time>2018-10-17T07:20:39Z</time>
      </trkpt>
      <trkpt lat="45.38429" lon="4.75015">
        <ele>142.89</ele>
        <time>2018-10-17T07:21:02Z</time>
      </trkpt>
      <trkpt lat="45.38425" lon="4.75018">
        <ele>142.89</ele>
        <time>2018-10-17T07:21:15Z</time>
      </trkpt>
      <trkpt lat="45.38417" lon="4.75021">
        <ele>142.89</ele>
        <time>2018-10-17T07:21:25Z</time>
      </trkpt>
      <trkpt lat="45.38411" lon="4.75029">
        <ele>142.41</ele>
        <time>2018-10-17T07:21:38Z</time>
      </trkpt>
      <trkpt lat="45.38409" lon="4.75039">
        <ele>140.97</ele>
        <time>2018-10-17T07:21:49Z</time>
      </trkpt>
      <trkpt lat="45.38412" lon="4.7505">
        <ele>140.97</ele>
        <time>2018-10-17T07:22:02Z</time>
      </trkpt>
      <trkpt lat="45.38417" lon="4.75065">
        <ele>140.97</ele>
        <time>2018-10-17T07:22:14Z</time>
      </trkpt>
      <trkpt lat="45.38421" lon="4.75078">
        <ele>141.45</ele>
        <time>2018-10-17T07:22:28Z</time>
      </trkpt>
      <trkpt lat="45.3843" lon="4.75089">
        <ele>141.93</ele>
        <time>2018-10-17T07:22:43Z</time>
      </trkpt>
      <trkpt lat="45.38438" lon="4.75095">
        <ele>141.93</ele>
        <time>2018-10-17T07:22:56Z</time>
      </trkpt>
      <trkpt lat="45.3845" lon="4.75099">
        <ele>142.41</ele>
        <time>2018-10-17T07:23:12Z</time>
      </trkpt>
      <trkpt lat="45.38451" lon="4.75099">
        <ele>141.93</ele>
        <time>2018-10-17T07:23:14Z</time>
      </trkpt>
      <trkpt lat="45.38464" lon="4.75099">
        <ele>141.93</ele>
        <time>2018-10-17T07:23:29Z</time>
      </trkpt>
      <trkpt lat="45.38475" lon="4.75103">
        <ele>142.41</ele>
        <time>2018-10-17T07:23:43Z</time>
      </trkpt>
      <trkpt lat="45.3848" lon="4.75105">
        <ele>142.41</ele>
        <time>2018-10-17T07:23:49Z</time>
      </trkpt>
      <trkpt lat="45.38489" lon="4.75111">
        <ele>142.41</ele>
        <time>2018-10-17T07:24:01Z</time>
      </trkpt>
      <trkpt lat="45.38501" lon="4.75122">
        <ele>142.41</ele>
        <time>2018-10-17T07:24:17Z</time>
      </trkpt>
      <trkpt lat="45.38501" lon="4.75123">
        <ele>142.41</ele>
        <time>2018-10-17T07:24:18Z</time>
      </trkpt>
      <trkpt lat="45.38504" lon="4.75129">
        <ele>142.41</ele>
        <time>2018-10-17T07:24:27Z</time>
      </trkpt>
      <trkpt lat="45.38504" lon="4.75143">
        <ele>142.89</ele>
        <time>2018-10-17T07:24:40Z</time>
      </trkpt>
      <trkpt lat="45.38505" lon="4.75159">
        <ele>142.89</ele>
        <time>2018-10-17T07:24:53Z</time>
      </trkpt>
      <trkpt lat="45.38505" lon="4.75173">
        <ele>143.37</ele>
        <time>2018-10-17T07:25:06Z</time>
      </trkpt>
      <trkpt lat="45.38505" lon="4.75185">
        <ele>143.37</ele>
        <time>2018-10-17T07:25:19Z</time>
      </trkpt>
      <trkpt lat="45.38505" lon="4.75204">
        <ele>143.85</ele>
        <time>2018-10-17T07:25:33Z</time>
      </trkpt>
      <trkpt lat="45.38505" lon="4.75223">
        <ele>143.85</ele>
        <time>2018-10-17T07:25:48Z</time>
      </trkpt>
      <trkpt lat="45.3851" lon="4.75236">
        <ele>144.34</ele>
        <time>2018-10-17T07:26:00Z</time>
      </trkpt>
      <trkpt lat="45.38511" lon="4.75239">
        <ele>144.34</ele>
        <time>2018-10-17T07:26:02Z</time>
      </trkpt>
      <trkpt lat="45.38516" lon="4.75255">
        <ele>144.34</ele>
        <time>2018-10-17T07:26:17Z</time>
      </trkpt>
      <trkpt lat="45.38522" lon="4.75276">
        <ele>144.34</ele>
        <time>2018-10-17T07:26:30Z</time>
      </trkpt>
      <trkpt lat="45.38529" lon="4.75297">
        <ele>144.82</ele>
        <time>2018-10-17T07:26:46Z</time>
      </trkpt>
      <trkpt lat="45.38537" lon="4.75314">
        <ele>145.3</ele>
        <time>2018-10-17T07:26:59Z</time>
      </trkpt>
      <trkpt lat="45.38545" lon="4.75332">
        <ele>145.3</ele>
        <time>2018-10-17T07:27:13Z</time>
      </trkpt>
      <trkpt lat="45.38555" lon="4.7535">
        <ele>145.3</ele>
        <time>2018-10-17T07:27:29Z</time>
      </trkpt>
      <trkpt lat="45.38563" lon="4.75366">
        <ele>145.3</ele>
        <time>2018-10-17T07:27:45Z</time>
      </trkpt>
      <trkpt lat="45.38569" lon="4.7538">
        <ele>145.78</ele>
        <time>2018-10-17T07:28:00Z</time>
      </trkpt>
      <trkpt lat="45.38579" lon="4.75398">
        <ele>145.78</ele>
        <time>2018-10-17T07:28:15Z</time>
      </trkpt>
      <trkpt lat="45.38586" lon="4.75417">
        <ele>145.78</ele>
        <time>2018-10-17T07:28:29Z</time>
      </trkpt>
      <trkpt lat="45.38593" lon="4.75436">
        <ele>145.78</ele>
        <time>2018-10-17T07:28:45Z</time>
      </trkpt>
      <trkpt lat="45.38601" lon="4.7545">
        <ele>146.26</ele>
        <time>2018-10-17T07:29:00Z</time>
      </trkpt>
      <trkpt lat="45.38603" lon="4.75452">
        <ele>146.26</ele>
        <time>2018-10-17T07:29:13Z</time>
      </trkpt>
      <trkpt lat="45.38603" lon="4.75454">
        <ele>146.26</ele>
        <time>2018-10-17T07:29:17Z</time>
      </trkpt>
      <trkpt lat="45.38613" lon="4.75467">
        <ele>146.74</ele>
        <time>2018-10-17T07:29:31Z</time>
      </trkpt>
      <trkpt lat="45.38617" lon="4.7547">
        <ele>146.74</ele>
        <time>2018-10-17T07:29:38Z</time>
      </trkpt>
      <trkpt lat="45.38624" lon="4.75464">
        <ele>146.74</ele>
        <time>2018-10-17T07:29:48Z</time>
      </trkpt>
      <trkpt lat="45.38634" lon="4.75453">
        <ele>146.74</ele>
        <time>2018-10-17T07:30:02Z</time>
      </trkpt>
      <trkpt lat="45.38635" lon="4.75451">
        <ele>146.74</ele>
        <time>2018-10-17T07:30:04Z</time>
      </trkpt>
      <trkpt lat="45.38642" lon="4.7545">
        <ele>146.74</ele>
        <time>2018-10-17T07:30:17Z</time>
      </trkpt>
      <trkpt lat="45.38653" lon="4.75444">
        <ele>146.74</ele>
        <time>2018-10-17T07:30:31Z</time>
      </trkpt>
      <trkpt lat="45.38655" lon="4.75445">
        <ele>146.74</ele>
        <time>2018-10-17T07:30:33Z</time>
      </trkpt>
      <trkpt lat="45.38666" lon="4.7546">
        <ele>146.74</ele>
        <time>2018-10-17T07:30:50Z</time>
      </trkpt>
      <trkpt lat="45.38672" lon="4.75469">
        <ele>146.74</ele>
        <time>2018-10-17T07:31:00Z</time>
      </trkpt>
      <trkpt lat="45.38678" lon="4.75479">
        <ele>146.26</ele>
        <time>2018-10-17T07:31:09Z</time>
      </trkpt>
      <trkpt lat="45.38685" lon="4.75494">
        <ele>146.26</ele>
        <time>2018-10-17T07:31:21Z</time>
      </trkpt>
      <trkpt lat="45.38697" lon="4.755">
        <ele>146.74</ele>
        <time>2018-10-17T07:31:35Z</time>
      </trkpt>
      <trkpt lat="45.3871" lon="4.75504">
        <ele>146.74</ele>
        <time>2018-10-17T07:31:49Z</time>
      </trkpt>
      <trkpt lat="45.38722" lon="4.75504">
        <ele>147.22</ele>
        <time>2018-10-17T07:32:02Z</time>
      </trkpt>
      <trkpt lat="45.38736" lon="4.75501">
        <ele>146.74</ele>
        <time>2018-10-17T07:32:16Z</time>
      </trkpt>
      <trkpt lat="45.38744" lon="4.75499">
        <ele>146.74</ele>
        <time>2018-10-17T07:32:23Z</time>
      </trkpt>
      <trkpt lat="45.38746" lon="4.755">
        <ele>146.74</ele>
        <time>2018-10-17T07:32:26Z</time>
      </trkpt>
      <trkpt lat="45.38756" lon="4.75499">
        <ele>146.74</ele>
        <time>2018-10-17T07:32:35Z</time>
      </trkpt>
      <trkpt lat="45.38758" lon="4.75498">
        <ele>146.74</ele>
        <time>2018-10-17T07:32:38Z</time>
      </trkpt>
      <trkpt lat="45.38769" lon="4.75495">
        <ele>146.74</ele>
        <time>2018-10-17T07:32:49Z</time>
      </trkpt>
      <trkpt lat="45.38781" lon="4.75494">
        <ele>146.74</ele>
        <time>2018-10-17T07:33:02Z</time>
      </trkpt>
      <trkpt lat="45.38792" lon="4.75493">
        <ele>146.74</ele>
        <time>2018-10-17T07:33:15Z</time>
      </trkpt>
      <trkpt lat="45.388" lon="4.75492">
        <ele>146.74</ele>
        <time>2018-10-17T07:33:24Z</time>
      </trkpt>
      <trkpt lat="45.38811" lon="4.75489">
        <ele>147.22</ele>
        <time>2018-10-17T07:33:35Z</time>
      </trkpt>
      <trkpt lat="45.38819" lon="4.75487">
        <ele>146.74</ele>
        <time>2018-10-17T07:33:43Z</time>
      </trkpt>
      <trkpt lat="45.38824" lon="4.75486">
        <ele>147.7</ele>
        <time>2018-10-17T07:33:48Z</time>
      </trkpt>
      <trkpt lat="45.38835" lon="4.75483">
        <ele>146.74</ele>
        <time>2018-10-17T07:34:00Z</time>
      </trkpt>
      <trkpt lat="45.38839" lon="4.75482">
        <ele>146.74</ele>
        <time>2018-10-17T07:34:03Z</time>
      </trkpt>
      <trkpt lat="45.38851" lon="4.75481">
        <ele>146.74</ele>
        <time>2018-10-17T07:34:16Z</time>
      </trkpt>
      <trkpt lat="45.38863" lon="4.75476">
        <ele>146.74</ele>
        <time>2018-10-17T07:34:29Z</time>
      </trkpt>
      <trkpt lat="45.38871" lon="4.75474">
        <ele>146.74</ele>
        <time>2018-10-17T07:34:39Z</time>
      </trkpt>
      <trkpt lat="45.38883" lon="4.75471">
        <ele>146.74</ele>
        <time>2018-10-17T07:34:53Z</time>
      </trkpt>
      <trkpt lat="45.38893" lon="4.75468">
        <ele>146.74</ele>
        <time>2018-10-17T07:35:04Z</time>
      </trkpt>
      <trkpt lat="45.38898" lon="4.75466">
        <ele>146.74</ele>
        <time>2018-10-17T07:35:10Z</time>
      </trkpt>
      <trkpt lat="45.389" lon="4.75465">
        <ele>146.74</ele>
        <time>2018-10-17T07:35:12Z</time>
      </trkpt>
      <trkpt lat="45.38911" lon="4.75463">
        <ele>146.74</ele>
        <time>2018-10-17T07:35:25Z</time>
      </trkpt>
      <trkpt lat="45.38913" lon="4.75463">
        <ele>146.74</ele>
        <time>2018-10-17T07:35:27Z</time>
      </trkpt>
      <trkpt lat="45.38925" lon="4.75462">
        <ele>146.74</ele>
        <time>2018-10-17T07:35:41Z</time>
      </trkpt>
      <trkpt lat="45.38926" lon="4.75462">
        <ele>146.74</ele>
        <time>2018-10-17T07:35:43Z</time>
      </trkpt>
      <trkpt lat="45.38933" lon="4.75461">
        <ele>146.74</ele>
        <time>2018-10-17T07:35:50Z</time>
      </trkpt>
      <trkpt lat="45.38942" lon="4.75458">
        <ele>146.74</ele>
        <time>2018-10-17T07:36:01Z</time>
      </trkpt>
      <trkpt lat="45.38954" lon="4.75454">
        <ele>146.74</ele>
        <time>2018-10-17T07:36:16Z</time>
      </trkpt>
      <trkpt lat="45.38955" lon="4.75453">
        <ele>146.74</ele>
        <time>2018-10-17T07:36:18Z</time>
      </trkpt>
      <trkpt lat="45.38962" lon="4.75449">
        <ele>146.74</ele>
        <time>2018-10-17T07:36:26Z</time>
      </trkpt>
      <trkpt lat="45.38967" lon="4.75449">
        <ele>146.74</ele>
        <time>2018-10-17T07:36:32Z</time>
      </trkpt>
      <trkpt lat="45.38976" lon="4.75446">
        <ele>146.74</ele>
        <time>2018-10-17T07:36:44Z</time>
      </trkpt>
      <trkpt lat="45.38986" lon="4.75445">
        <ele>146.74</ele>
        <time>2018-10-17T07:36:57Z</time>
      </trkpt>
      <trkpt lat="45.38996" lon="4.75443">
        <ele>147.22</ele>
        <time>2018-10-17T07:37:09Z</time>
      </trkpt>
      <trkpt lat="45.39004" lon="4.75441">
        <ele>146.74</ele>
        <time>2018-10-17T07:37:20Z</time>
      </trkpt>
      <trkpt lat="45.39017" lon="4.75435">
        <ele>146.74</ele>
        <time>2018-10-17T07:37:33Z</time>
      </trkpt>
      <trkpt lat="45.39028" lon="4.75434">
        <ele>146.74</ele>
        <time>2018-10-17T07:37:45Z</time>
      </trkpt>
      <trkpt lat="45.39034" lon="4.75432">
        <ele>146.74</ele>
        <time>2018-10-17T07:37:51Z</time>
      </trkpt>
      <trkpt lat="45.39045" lon="4.75426">
        <ele>146.74</ele>
        <time>2018-10-17T07:38:03Z</time>
      </trkpt>
      <trkpt lat="45.39054" lon="4.75424">
        <ele>146.74</ele>
        <time>2018-10-17T07:38:13Z</time>
      </trkpt>
      <trkpt lat="45.39057" lon="4.75423">
        <ele>146.74</ele>
        <time>2018-10-17T07:38:17Z</time>
      </trkpt>
      <trkpt lat="45.39065" lon="4.75421">
        <ele>146.74</ele>
        <time>2018-10-17T07:38:26Z</time>
      </trkpt>
      <trkpt lat="45.39081" lon="4.75414">
        <ele>146.74</ele>
        <time>2018-10-17T07:38:43Z</time>
      </trkpt>
      <trkpt lat="45.39092" lon="4.75409">
        <ele>146.74</ele>
        <time>2018-10-17T07:38:54Z</time>
      </trkpt>
      <trkpt lat="45.39093" lon="4.75408">
        <ele>146.74</ele>
        <time>2018-10-17T07:38:56Z</time>
      </trkpt>
      <trkpt lat="45.39096" lon="4.75407">
        <ele>146.74</ele>
        <time>2018-10-17T07:38:59Z</time>
      </trkpt>
      <trkpt lat="45.39109" lon="4.75401">
        <ele>146.74</ele>
        <time>2018-10-17T07:39:12Z</time>
      </trkpt>
      <trkpt lat="45.39121" lon="4.75396">
        <ele>146.74</ele>
        <time>2018-10-17T07:39:26Z</time>
      </trkpt>
      <trkpt lat="45.39133" lon="4.75391">
        <ele>146.74</ele>
        <time>2018-10-17T07:39:40Z</time>
      </trkpt>
      <trkpt lat="45.39142" lon="4.75388">
        <ele>146.74</ele>
        <time>2018-10-17T07:39:52Z</time>
      </trkpt>
      <trkpt lat="45.39148" lon="4.75385">
        <ele>146.74</ele>
        <time>2018-10-17T07:39:58Z</time>
      </trkpt>
      <trkpt lat="45.39156" lon="4.75384">
        <ele>146.74</ele>
        <time>2018-10-17T07:40:08Z</time>
      </trkpt>
      <trkpt lat="45.39169" lon="4.75379">
        <ele>146.74</ele>
        <time>2018-10-17T07:40:23Z</time>
      </trkpt>
      <trkpt lat="45.39178" lon="4.75376">
        <ele>146.74</ele>
        <time>2018-10-17T07:40:34Z</time>
      </trkpt>
      <trkpt lat="45.39183" lon="4.75375">
        <ele>146.74</ele>
        <time>2018-10-17T07:40:38Z</time>
      </trkpt>
      <trkpt lat="45.39191" lon="4.75372">
        <ele>146.74</ele>
        <time>2018-10-17T07:40:46Z</time>
      </trkpt>
      <trkpt lat="45.39199" lon="4.75367">
        <ele>146.74</ele>
        <time>2018-10-17T07:40:56Z</time>
      </trkpt>
      <trkpt lat="45.3921" lon="4.75364">
        <ele>146.74</ele>
        <time>2018-10-17T07:41:08Z</time>
      </trkpt>
      <trkpt lat="45.39216" lon="4.75362">
        <ele>146.74</ele>
        <time>2018-10-17T07:41:15Z</time>
      </trkpt>
      <trkpt lat="45.39219" lon="4.7536">
        <ele>146.74</ele>
        <time>2018-10-17T07:41:19Z</time>
      </trkpt>
      <trkpt lat="45.39231" lon="4.75353">
        <ele>146.74</ele>
        <time>2018-10-17T07:41:31Z</time>
      </trkpt>
      <trkpt lat="45.39245" lon="4.75348">
        <ele>147.22</ele>
        <time>2018-10-17T07:41:45Z</time>
      </trkpt>
      <trkpt lat="45.39258" lon="4.75342">
        <ele>147.22</ele>
        <time>2018-10-17T07:42:00Z</time>
      </trkpt>
      <trkpt lat="45.39268" lon="4.75341">
        <ele>147.22</ele>
        <time>2018-10-17T07:42:12Z</time>
      </trkpt>
      <trkpt lat="45.39279" lon="4.75336">
        <ele>147.22</ele>
        <time>2018-10-17T07:42:26Z</time>
      </trkpt>
      <trkpt lat="45.39286" lon="4.75335">
        <ele>147.22</ele>
        <time>2018-10-17T07:42:35Z</time>
      </trkpt>
      <trkpt lat="45.39299" lon="4.75328">
        <ele>147.22</ele>
        <time>2018-10-17T07:42:48Z</time>
      </trkpt>
      <trkpt lat="45.39314" lon="4.75319">
        <ele>147.22</ele>
        <time>2018-10-17T07:43:02Z</time>
      </trkpt>
      <trkpt lat="45.3932" lon="4.75315">
        <ele>147.22</ele>
        <time>2018-10-17T07:43:08Z</time>
      </trkpt>
      <trkpt lat="45.39334" lon="4.75307">
        <ele>147.7</ele>
        <time>2018-10-17T07:43:23Z</time>
      </trkpt>
      <trkpt lat="45.39345" lon="4.75303">
        <ele>147.7</ele>
        <time>2018-10-17T07:43:37Z</time>
      </trkpt>
      <trkpt lat="45.39356" lon="4.753">
        <ele>148.66</ele>
        <time>2018-10-17T07:43:49Z</time>
      </trkpt>
      <trkpt lat="45.39368" lon="4.75294">
        <ele>147.7</ele>
        <time>2018-10-17T07:44:02Z</time>
      </trkpt>
      <trkpt lat="45.39373" lon="4.75291">
        <ele>148.18</ele>
        <time>2018-10-17T07:44:08Z</time>
      </trkpt>
      <trkpt lat="45.39385" lon="4.75281">
        <ele>147.7</ele>
        <time>2018-10-17T07:44:22Z</time>
      </trkpt>
      <trkpt lat="45.39398" lon="4.75275">
        <ele>148.18</ele>
        <time>2018-10-17T07:44:36Z</time>
      </trkpt>
      <trkpt lat="45.3941" lon="4.7527">
        <ele>148.18</ele>
        <time>2018-10-17T07:44:50Z</time>
      </trkpt>
      <trkpt lat="45.39425" lon="4.75263">
        <ele>148.18</ele>
        <time>2018-10-17T07:45:04Z</time>
      </trkpt>
      <trkpt lat="45.3944" lon="4.75255">
        <ele>148.66</ele>
        <time>2018-10-17T07:45:18Z</time>
      </trkpt>
      <trkpt lat="45.39459" lon="4.75242">
        <ele>148.66</ele>
        <time>2018-10-17T07:45:36Z</time>
      </trkpt>
      <trkpt lat="45.39466" lon="4.75239">
        <ele>148.66</ele>
        <time>2018-10-17T07:45:43Z</time>
      </trkpt>
      <trkpt lat="45.39469" lon="4.75236">
        <ele>148.66</ele>
        <time>2018-10-17T07:45:46Z</time>
      </trkpt>
      <trkpt lat="45.39483" lon="4.7523">
        <ele>148.66</ele>
        <time>2018-10-17T07:46:02Z</time>
      </trkpt>
      <trkpt lat="45.39491" lon="4.75226">
        <ele>148.66</ele>
        <time>2018-10-17T07:46:10Z</time>
      </trkpt>
      <trkpt lat="45.39508" lon="4.75218">
        <ele>148.66</ele>
        <time>2018-10-17T07:46:28Z</time>
      </trkpt>
      <trkpt lat="45.39523" lon="4.75208">
        <ele>148.66</ele>
        <time>2018-10-17T07:46:45Z</time>
      </trkpt>
      <trkpt lat="45.39536" lon="4.75198">
        <ele>148.66</ele>
        <time>2018-10-17T07:46:59Z</time>
      </trkpt>
      <trkpt lat="45.39553" lon="4.75186">
        <ele>149.14</ele>
        <time>2018-10-17T07:47:15Z</time>
      </trkpt>
      <trkpt lat="45.39561" lon="4.75181">
        <ele>149.14</ele>
        <time>2018-10-17T07:47:23Z</time>
      </trkpt>
      <trkpt lat="45.3957" lon="4.75175">
        <ele>149.14</ele>
        <time>2018-10-17T07:47:34Z</time>
      </trkpt>
      <trkpt lat="45.39586" lon="4.75167">
        <ele>149.14</ele>
        <time>2018-10-17T07:47:51Z</time>
      </trkpt>
      <trkpt lat="45.39599" lon="4.75159">
        <ele>149.14</ele>
        <time>2018-10-17T07:48:06Z</time>
      </trkpt>
      <trkpt lat="45.39614" lon="4.7515">
        <ele>149.14</ele>
        <time>2018-10-17T07:48:21Z</time>
      </trkpt>
      <trkpt lat="45.39627" lon="4.75141">
        <ele>149.14</ele>
        <time>2018-10-17T07:48:36Z</time>
      </trkpt>
      <trkpt lat="45.39641" lon="4.75133">
        <ele>149.14</ele>
        <time>2018-10-17T07:48:52Z</time>
      </trkpt>
      <trkpt lat="45.39655" lon="4.75124">
        <ele>149.14</ele>
        <time>2018-10-17T07:49:09Z</time>
      </trkpt>
      <trkpt lat="45.39669" lon="4.75114">
        <ele>149.14</ele>
        <time>2018-10-17T07:49:23Z</time>
      </trkpt>
      <trkpt lat="45.3968" lon="4.75107">
        <ele>149.14</ele>
        <time>2018-10-17T07:49:36Z</time>
      </trkpt>
      <trkpt lat="45.3969" lon="4.75101">
        <ele>149.62</ele>
        <time>2018-10-17T07:49:49Z</time>
      </trkpt>
      <trkpt lat="45.39703" lon="4.75093">
        <ele>149.14</ele>
        <time>2018-10-17T07:50:06Z</time>
      </trkpt>
      <trkpt lat="45.39716" lon="4.75085">
        <ele>149.14</ele>
        <time>2018-10-17T07:50:22Z</time>
      </trkpt>
      <trkpt lat="45.3973" lon="4.75077">
        <ele>149.14</ele>
        <time>2018-10-17T07:50:39Z</time>
      </trkpt>
      <trkpt lat="45.3974" lon="4.75071">
        <ele>149.14</ele>
        <time>2018-10-17T07:50:53Z</time>
      </trkpt>
      <trkpt lat="45.39753" lon="4.75063">
        <ele>149.14</ele>
        <time>2018-10-17T07:51:08Z</time>
      </trkpt>
      <trkpt lat="45.39762" lon="4.75058">
        <ele>149.14</ele>
        <time>2018-10-17T07:51:21Z</time>
      </trkpt>
      <trkpt lat="45.39774" lon="4.75051">
        <ele>149.14</ele>
        <time>2018-10-17T07:51:37Z</time>
      </trkpt>
      <trkpt lat="45.39775" lon="4.7505">
        <ele>149.14</ele>
        <time>2018-10-17T07:51:38Z</time>
      </trkpt>
      <trkpt lat="45.39787" lon="4.75042">
        <ele>149.14</ele>
        <time>2018-10-17T07:51:52Z</time>
      </trkpt>
      <trkpt lat="45.39792" lon="4.75038">
        <ele>149.14</ele>
        <time>2018-10-17T07:52:11Z</time>
      </trkpt>
      <trkpt lat="45.39794" lon="4.75036">
        <ele>149.14</ele>
        <time>2018-10-17T07:52:28Z</time>
      </trkpt>
      <trkpt lat="45.39796" lon="4.75033">
        <ele>149.14</ele>
        <time>2018-10-17T07:52:50Z</time>
      </trkpt>
      <trkpt lat="45.39797" lon="4.7503">
        <ele>149.14</ele>
        <time>2018-10-17T07:53:12Z</time>
      </trkpt>
      <trkpt lat="45.39797" lon="4.7503">
        <ele>149.14</ele>
        <time>2018-10-17T07:53:39Z</time>
      </trkpt>
      <trkpt lat="45.39797" lon="4.7503">
        <ele>149.14</ele>
        <time>2018-10-17T07:54:00Z</time>
      </trkpt>
      <trkpt lat="45.39797" lon="4.7503">
        <ele>149.14</ele>
        <time>2018-10-17T07:54:25Z</time>
      </trkpt>
      <trkpt lat="45.39797" lon="4.7503">
        <ele>149.14</ele>
        <time>2018-10-17T07:54:48Z</time>
      </trkpt>
      <trkpt lat="45.39799" lon="4.75029">
        <ele>149.14</ele>
        <time>2018-10-17T07:55:12Z</time>
      </trkpt>
      <trkpt lat="45.39805" lon="4.75026">
        <ele>149.14</ele>
        <time>2018-10-17T07:55:26Z</time>
      </trkpt>
      <trkpt lat="45.39817" lon="4.75018">
        <ele>149.14</ele>
        <time>2018-10-17T07:55:41Z</time>
      </trkpt>
      <trkpt lat="45.3983" lon="4.7501">
        <ele>149.14</ele>
        <time>2018-10-17T07:55:57Z</time>
      </trkpt>
      <trkpt lat="45.3984" lon="4.75004">
        <ele>149.14</ele>
        <time>2018-10-17T07:56:10Z</time>
      </trkpt>
      <trkpt lat="45.39846" lon="4.75">
        <ele>149.14</ele>
        <time>2018-10-17T07:56:17Z</time>
      </trkpt>
      <trkpt lat="45.39859" lon="4.7499">
        <ele>149.14</ele>
        <time>2018-10-17T07:56:31Z</time>
      </trkpt>
      <trkpt lat="45.39872" lon="4.74981">
        <ele>149.14</ele>
        <time>2018-10-17T07:56:46Z</time>
      </trkpt>
      <trkpt lat="45.39884" lon="4.74973">
        <ele>149.62</ele>
        <time>2018-10-17T07:56:59Z</time>
      </trkpt>
      <trkpt lat="45.39895" lon="4.74962">
        <ele>149.62</ele>
        <time>2018-10-17T07:57:14Z</time>
      </trkpt>
      <trkpt lat="45.39908" lon="4.74951">
        <ele>149.62</ele>
        <time>2018-10-17T07:57:29Z</time>
      </trkpt>
      <trkpt lat="45.39917" lon="4.74942">
        <ele>149.62</ele>
        <time>2018-10-17T07:57:41Z</time>
      </trkpt>
      <trkpt lat="45.39923" lon="4.74936">
        <ele>149.62</ele>
        <time>2018-10-17T07:57:48Z</time>
      </trkpt>
      <trkpt lat="45.39929" lon="4.74932">
        <ele>149.62</ele>
        <time>2018-10-17T07:57:54Z</time>
      </trkpt>
      <trkpt lat="45.3994" lon="4.74922">
        <ele>150.1</ele>
        <time>2018-10-17T07:58:09Z</time>
      </trkpt>
      <trkpt lat="45.39954" lon="4.74907">
        <ele>150.1</ele>
        <time>2018-10-17T07:58:24Z</time>
      </trkpt>
      <trkpt lat="45.39954" lon="4.74906">
        <ele>150.1</ele>
        <time>2018-10-17T07:58:25Z</time>
      </trkpt>
      <trkpt lat="45.39955" lon="4.74904">
        <ele>150.1</ele>
        <time>2018-10-17T07:58:27Z</time>
      </trkpt>
      <trkpt lat="45.39962" lon="4.74899">
        <ele>150.1</ele>
        <time>2018-10-17T07:58:42Z</time>
      </trkpt>
      <trkpt lat="45.39972" lon="4.74892">
        <ele>150.1</ele>
        <time>2018-10-17T07:58:56Z</time>
      </trkpt>
      <trkpt lat="45.39989" lon="4.74875">
        <ele>150.1</ele>
        <time>2018-10-17T07:59:12Z</time>
      </trkpt>
      <trkpt lat="45.40001" lon="4.74863">
        <ele>150.1</ele>
        <time>2018-10-17T07:59:26Z</time>
      </trkpt>
      <trkpt lat="45.40013" lon="4.7485">
        <ele>150.58</ele>
        <time>2018-10-17T07:59:42Z</time>
      </trkpt>
      <trkpt lat="45.40024" lon="4.74841">
        <ele>150.58</ele>
        <time>2018-10-17T07:59:56Z</time>
      </trkpt>
      <trkpt lat="45.40035" lon="4.74829">
        <ele>150.58</ele>
        <time>2018-10-17T08:00:09Z</time>
      </trkpt>
      <trkpt lat="45.40045" lon="4.74818">
        <ele>150.58</ele>
        <time>2018-10-17T08:00:22Z</time>
      </trkpt>
      <trkpt lat="45.40056" lon="4.74809">
        <ele>150.58</ele>
        <time>2018-10-17T08:00:37Z</time>
      </trkpt>
      <trkpt lat="45.40067" lon="4.748">
        <ele>150.58</ele>
        <time>2018-10-17T08:00:54Z</time>
      </trkpt>
      <trkpt lat="45.40078" lon="4.74791">
        <ele>151.06</ele>
        <time>2018-10-17T08:01:09Z</time>
      </trkpt>
      <trkpt lat="45.4008" lon="4.74791">
        <ele>151.06</ele>
        <time>2018-10-17T08:01:11Z</time>
      </trkpt>
      <trkpt lat="45.40095" lon="4.74789">
        <ele>152.03</ele>
        <time>2018-10-17T08:01:26Z</time>
      </trkpt>
      <trkpt lat="45.40101" lon="4.74797">
        <ele>152.03</ele>
        <time>2018-10-17T08:01:36Z</time>
      </trkpt>
      <trkpt lat="45.40105" lon="4.74807">
        <ele>152.51</ele>
        <time>2018-10-17T08:01:45Z</time>
      </trkpt>
      <trkpt lat="45.40106" lon="4.74819">
        <ele>152.51</ele>
        <time>2018-10-17T08:01:56Z</time>
      </trkpt>
      <trkpt lat="45.40104" lon="4.74831">
        <ele>153.47</ele>
        <time>2018-10-17T08:02:08Z</time>
      </trkpt>
      <trkpt lat="45.401" lon="4.74843">
        <ele>153.95</ele>
        <time>2018-10-17T08:02:20Z</time>
      </trkpt>
      <trkpt lat="45.40093" lon="4.74854">
        <ele>154.43</ele>
        <time>2018-10-17T08:02:35Z</time>
      </trkpt>
      <trkpt lat="45.40085" lon="4.74866">
        <ele>154.91</ele>
        <time>2018-10-17T08:02:51Z</time>
      </trkpt>
      <trkpt lat="45.40081" lon="4.74878">
        <ele>154.91</ele>
        <time>2018-10-17T08:03:04Z</time>
      </trkpt>
      <trkpt lat="45.40081" lon="4.7488">
        <ele>155.39</ele>
        <time>2018-10-17T08:03:27Z</time>
      </trkpt>
      <trkpt lat="45.40081" lon="4.74881">
        <ele>155.39</ele>
        <time>2018-10-17T08:03:44Z</time>
      </trkpt>
      <trkpt lat="45.40081" lon="4.74883">
        <ele>155.39</ele>
        <time>2018-10-17T08:03:59Z</time>
      </trkpt>
      <trkpt lat="45.40081" lon="4.74883">
        <ele>155.39</ele>
        <time>2018-10-17T08:04:21Z</time>
      </trkpt>
      <trkpt lat="45.40082" lon="4.74884">
        <ele>154.91</ele>
        <time>2018-10-17T08:04:45Z</time>
      </trkpt>
      <trkpt lat="45.40082" lon="4.74883">
        <ele>155.39</ele>
        <time>2018-10-17T08:04:57Z</time>
      </trkpt>
      <trkpt lat="45.40075" lon="4.74886">
        <ele>154.91</ele>
        <time>2018-10-17T08:05:07Z</time>
      </trkpt>
      <trkpt lat="45.40074" lon="4.74887">
        <ele>154.91</ele>
        <time>2018-10-17T08:05:09Z</time>
      </trkpt>
      <trkpt lat="45.40065" lon="4.74892">
        <ele>154.91</ele>
        <time>2018-10-17T08:05:25Z</time>
      </trkpt>
      <trkpt lat="45.40054" lon="4.74899">
        <ele>154.91</ele>
        <time>2018-10-17T08:05:39Z</time>
      </trkpt>
      <trkpt lat="45.40047" lon="4.74906">
        <ele>154.91</ele>
        <time>2018-10-17T08:05:51Z</time>
      </trkpt>
      <trkpt lat="45.40044" lon="4.74908">
        <ele>154.91</ele>
        <time>2018-10-17T08:05:55Z</time>
      </trkpt>
      <trkpt lat="45.40038" lon="4.74913">
        <ele>154.91</ele>
        <time>2018-10-17T08:06:04Z</time>
      </trkpt>
      <trkpt lat="45.40026" lon="4.74922">
        <ele>154.91</ele>
        <time>2018-10-17T08:06:18Z</time>
      </trkpt>
      <trkpt lat="45.40015" lon="4.74932">
        <ele>154.91</ele>
        <time>2018-10-17T08:06:33Z</time>
      </trkpt>
      <trkpt lat="45.40012" lon="4.74934">
        <ele>154.91</ele>
        <time>2018-10-17T08:06:36Z</time>
      </trkpt>
      <trkpt lat="45.40005" lon="4.74945">
        <ele>154.91</ele>
        <time>2018-10-17T08:06:50Z</time>
      </trkpt>
      <trkpt lat="45.39991" lon="4.7496">
        <ele>154.91</ele>
        <time>2018-10-17T08:07:08Z</time>
      </trkpt>
      <trkpt lat="45.39982" lon="4.7497">
        <ele>155.39</ele>
        <time>2018-10-17T08:07:23Z</time>
      </trkpt>
      <trkpt lat="45.3997" lon="4.7498">
        <ele>154.91</ele>
        <time>2018-10-17T08:07:38Z</time>
      </trkpt>
      <trkpt lat="45.39958" lon="4.74991">
        <ele>154.91</ele>
        <time>2018-10-17T08:07:55Z</time>
      </trkpt>
      <trkpt lat="45.39957" lon="4.74992">
        <ele>154.91</ele>
        <time>2018-10-17T08:07:56Z</time>
      </trkpt>
      <trkpt lat="45.39945" lon="4.75004">
        <ele>155.39</ele>
        <time>2018-10-17T08:08:11Z</time>
      </trkpt>
      <trkpt lat="45.39932" lon="4.75016">
        <ele>155.39</ele>
        <time>2018-10-17T08:08:25Z</time>
      </trkpt>
      <trkpt lat="45.39922" lon="4.75027">
        <ele>155.39</ele>
        <time>2018-10-17T08:08:39Z</time>
      </trkpt>
      <trkpt lat="45.39916" lon="4.75032">
        <ele>155.39</ele>
        <time>2018-10-17T08:08:47Z</time>
      </trkpt>
      <trkpt lat="45.3991" lon="4.75039">
        <ele>155.39</ele>
        <time>2018-10-17T08:08:54Z</time>
      </trkpt>
      <trkpt lat="45.39898" lon="4.75049">
        <ele>155.39</ele>
        <time>2018-10-17T08:09:09Z</time>
      </trkpt>
      <trkpt lat="45.39888" lon="4.75059">
        <ele>155.39</ele>
        <time>2018-10-17T08:09:23Z</time>
      </trkpt>
      <trkpt lat="45.39886" lon="4.7506">
        <ele>155.39</ele>
        <time>2018-10-17T08:09:26Z</time>
      </trkpt>
      <trkpt lat="45.39883" lon="4.75062">
        <ele>155.39</ele>
        <time>2018-10-17T08:09:28Z</time>
      </trkpt>
      <trkpt lat="45.39873" lon="4.75075">
        <ele>155.39</ele>
        <time>2018-10-17T08:09:43Z</time>
      </trkpt>
      <trkpt lat="45.39869" lon="4.75079">
        <ele>155.39</ele>
        <time>2018-10-17T08:09:49Z</time>
      </trkpt>
      <trkpt lat="45.39858" lon="4.75089">
        <ele>155.39</ele>
        <time>2018-10-17T08:10:03Z</time>
      </trkpt>
      <trkpt lat="45.39853" lon="4.75095">
        <ele>155.39</ele>
        <time>2018-10-17T08:10:11Z</time>
      </trkpt>
      <trkpt lat="45.39851" lon="4.75097">
        <ele>155.39</ele>
        <time>2018-10-17T08:10:13Z</time>
      </trkpt>
      <trkpt lat="45.39841" lon="4.75108">
        <ele>155.39</ele>
        <time>2018-10-17T08:10:29Z</time>
      </trkpt>
      <trkpt lat="45.39829" lon="4.75119">
        <ele>155.39</ele>
        <time>2018-10-17T08:10:44Z</time>
      </trkpt>
      <trkpt lat="45.39825" lon="4.75121">
        <ele>155.39</ele>
        <time>2018-10-17T08:10:47Z</time>
      </trkpt>
      <trkpt lat="45.39822" lon="4.75124">
        <ele>155.39</ele>
        <time>2018-10-17T08:10:50Z</time>
      </trkpt>
      <trkpt lat="45.39811" lon="4.75133">
        <ele>155.39</ele>
        <time>2018-10-17T08:11:04Z</time>
      </trkpt>
      <trkpt lat="45.39807" lon="4.75134">
        <ele>155.39</ele>
        <time>2018-10-17T08:11:11Z</time>
      </trkpt>
      <trkpt lat="45.39801" lon="4.7514">
        <ele>155.39</ele>
        <time>2018-10-17T08:11:20Z</time>
      </trkpt>
      <trkpt lat="45.39797" lon="4.75143">
        <ele>155.39</ele>
        <time>2018-10-17T08:11:24Z</time>
      </trkpt>
      <trkpt lat="45.39792" lon="4.75149">
        <ele>156.35</ele>
        <time>2018-10-17T08:11:30Z</time>
      </trkpt>
      <trkpt lat="45.39787" lon="4.75153">
        <ele>155.39</ele>
        <time>2018-10-17T08:11:37Z</time>
      </trkpt>
      <trkpt lat="45.39784" lon="4.75156">
        <ele>155.39</ele>
        <time>2018-10-17T08:11:41Z</time>
      </trkpt>
      <trkpt lat="45.39775" lon="4.75167">
        <ele>155.39</ele>
        <time>2018-10-17T08:11:54Z</time>
      </trkpt>
      <trkpt lat="45.39762" lon="4.75179">
        <ele>155.39</ele>
        <time>2018-10-17T08:12:11Z</time>
      </trkpt>
      <trkpt lat="45.39753" lon="4.75185">
        <ele>155.39</ele>
        <time>2018-10-17T08:12:23Z</time>
      </trkpt>
      <trkpt lat="45.39743" lon="4.75192">
        <ele>155.39</ele>
        <time>2018-10-17T08:12:38Z</time>
      </trkpt>
      <trkpt lat="45.3973" lon="4.75202">
        <ele>155.39</ele>
        <time>2018-10-17T08:12:54Z</time>
      </trkpt>
      <trkpt lat="45.3972" lon="4.75209">
        <ele>155.39</ele>
        <time>2018-10-17T08:13:08Z</time>
      </trkpt>
      <trkpt lat="45.39711" lon="4.75217">
        <ele>155.39</ele>
        <time>2018-10-17T08:13:21Z</time>
      </trkpt>
      <trkpt lat="45.39698" lon="4.75226">
        <ele>155.39</ele>
        <time>2018-10-17T08:13:36Z</time>
      </trkpt>
      <trkpt lat="45.39694" lon="4.75228">
        <ele>155.39</ele>
        <time>2018-10-17T08:13:42Z</time>
      </trkpt>
      <trkpt lat="45.39683" lon="4.75235">
        <ele>155.39</ele>
        <time>2018-10-17T08:13:56Z</time>
      </trkpt>
      <trkpt lat="45.39673" lon="4.75239">
        <ele>154.91</ele>
        <time>2018-10-17T08:14:10Z</time>
      </trkpt>
      <trkpt lat="45.39662" lon="4.75246">
        <ele>155.39</ele>
        <time>2018-10-17T08:14:24Z</time>
      </trkpt>
      <trkpt lat="45.39651" lon="4.75254">
        <ele>155.39</ele>
        <time>2018-10-17T08:14:35Z</time>
      </trkpt>
      <trkpt lat="45.39648" lon="4.75257">
        <ele>155.39</ele>
        <time>2018-10-17T08:14:38Z</time>
      </trkpt>
      <trkpt lat="45.39636" lon="4.75261">
        <ele>155.39</ele>
        <time>2018-10-17T08:14:51Z</time>
      </trkpt>
      <trkpt lat="45.39634" lon="4.75262">
        <ele>155.39</ele>
        <time>2018-10-17T08:15:06Z</time>
      </trkpt>
      <trkpt lat="45.39627" lon="4.75269">
        <ele>155.39</ele>
        <time>2018-10-17T08:15:19Z</time>
      </trkpt>
      <trkpt lat="45.39617" lon="4.75275">
        <ele>155.39</ele>
        <time>2018-10-17T08:15:34Z</time>
      </trkpt>
      <trkpt lat="45.39616" lon="4.75276">
        <ele>155.39</ele>
        <time>2018-10-17T08:15:35Z</time>
      </trkpt>
      <trkpt lat="45.39607" lon="4.75282">
        <ele>155.39</ele>
        <time>2018-10-17T08:15:48Z</time>
      </trkpt>
      <trkpt lat="45.39595" lon="4.75291">
        <ele>155.39</ele>
        <time>2018-10-17T08:16:03Z</time>
      </trkpt>
      <trkpt lat="45.39587" lon="4.75295">
        <ele>155.39</ele>
        <time>2018-10-17T08:16:16Z</time>
      </trkpt>
      <trkpt lat="45.39581" lon="4.75299">
        <ele>155.39</ele>
        <time>2018-10-17T08:16:24Z</time>
      </trkpt>
      <trkpt lat="45.39567" lon="4.75308">
        <ele>155.39</ele>
        <time>2018-10-17T08:16:38Z</time>
      </trkpt>
      <trkpt lat="45.39555" lon="4.75314">
        <ele>155.39</ele>
        <time>2018-10-17T08:16:53Z</time>
      </trkpt>
      <trkpt lat="45.39543" lon="4.75321">
        <ele>155.39</ele>
        <time>2018-10-17T08:17:10Z</time>
      </trkpt>
      <trkpt lat="45.39541" lon="4.75322">
        <ele>155.39</ele>
        <time>2018-10-17T08:17:12Z</time>
      </trkpt>
      <trkpt lat="45.39533" lon="4.75327">
        <ele>155.39</ele>
        <time>2018-10-17T08:17:24Z</time>
      </trkpt>
      <trkpt lat="45.3952" lon="4.75334">
        <ele>155.39</ele>
        <time>2018-10-17T08:17:36Z</time>
      </trkpt>
      <trkpt lat="45.39505" lon="4.75342">
        <ele>155.39</ele>
        <time>2018-10-17T08:17:51Z</time>
      </trkpt>
      <trkpt lat="45.3949" lon="4.75351">
        <ele>155.39</ele>
        <time>2018-10-17T08:18:08Z</time>
      </trkpt>
      <trkpt lat="45.39484" lon="4.75353">
        <ele>155.87</ele>
        <time>2018-10-17T08:18:14Z</time>
      </trkpt>
      <trkpt lat="45.39468" lon="4.75362">
        <ele>155.39</ele>
        <time>2018-10-17T08:18:30Z</time>
      </trkpt>
      <trkpt lat="45.39455" lon="4.75369">
        <ele>155.39</ele>
        <time>2018-10-17T08:18:46Z</time>
      </trkpt>
      <trkpt lat="45.39443" lon="4.75374">
        <ele>155.39</ele>
        <time>2018-10-17T08:19:02Z</time>
      </trkpt>
      <trkpt lat="45.3943" lon="4.7538">
        <ele>155.39</ele>
        <time>2018-10-17T08:19:16Z</time>
      </trkpt>
      <trkpt lat="45.39418" lon="4.75387">
        <ele>155.39</ele>
        <time>2018-10-17T08:19:31Z</time>
      </trkpt>
      <trkpt lat="45.39406" lon="4.75393">
        <ele>155.39</ele>
        <time>2018-10-17T08:19:45Z</time>
      </trkpt>
      <trkpt lat="45.39394" lon="4.754">
        <ele>155.39</ele>
        <time>2018-10-17T08:20:01Z</time>
      </trkpt>
      <trkpt lat="45.39379" lon="4.75407">
        <ele>155.39</ele>
        <time>2018-10-17T08:20:19Z</time>
      </trkpt>
      <trkpt lat="45.39361" lon="4.75416">
        <ele>154.91</ele>
        <time>2018-10-17T08:20:36Z</time>
      </trkpt>
      <trkpt lat="45.39346" lon="4.75424">
        <ele>154.91</ele>
        <time>2018-10-17T08:20:53Z</time>
      </trkpt>
      <trkpt lat="45.39329" lon="4.75432">
        <ele>154.91</ele>
        <time>2018-10-17T08:21:10Z</time>
      </trkpt>
      <trkpt lat="45.39314" lon="4.75438">
        <ele>154.91</ele>
        <time>2018-10-17T08:21:27Z</time>
      </trkpt>
      <trkpt lat="45.39298" lon="4.75446">
        <ele>154.91</ele>
        <time>2018-10-17T08:21:42Z</time>
      </trkpt>
      <trkpt lat="45.39288" lon="4.7545">
        <ele>154.91</ele>
        <time>2018-10-17T08:21:57Z</time>
      </trkpt>
      <trkpt lat="45.39281" lon="4.75453">
        <ele>154.43</ele>
        <time>2018-10-17T08:22:11Z</time>
      </trkpt>
      <trkpt lat="45.39274" lon="4.75456">
        <ele>154.43</ele>
        <time>2018-10-17T08:22:20Z</time>
      </trkpt>
      <trkpt lat="45.39264" lon="4.75459">
        <ele>154.43</ele>
        <time>2018-10-17T08:22:31Z</time>
      </trkpt>
      <trkpt lat="45.39248" lon="4.75466">
        <ele>154.43</ele>
        <time>2018-10-17T08:22:49Z</time>
      </trkpt>
      <trkpt lat="45.39231" lon="4.75473">
        <ele>154.43</ele>
        <time>2018-10-17T08:23:08Z</time>
      </trkpt>
      <trkpt lat="45.39227" lon="4.75475">
        <ele>154.43</ele>
        <time>2018-10-17T08:23:13Z</time>
      </trkpt>
      <trkpt lat="45.39212" lon="4.75481">
        <ele>154.43</ele>
        <time>2018-10-17T08:23:30Z</time>
      </trkpt>
      <trkpt lat="45.392" lon="4.75486">
        <ele>153.95</ele>
        <time>2018-10-17T08:23:45Z</time>
      </trkpt>
      <trkpt lat="45.39184" lon="4.75493">
        <ele>153.95</ele>
        <time>2018-10-17T08:24:01Z</time>
      </trkpt>
      <trkpt lat="45.39171" lon="4.75498">
        <ele>153.95</ele>
        <time>2018-10-17T08:24:17Z</time>
      </trkpt>
      <trkpt lat="45.3916" lon="4.75503">
        <ele>153.95</ele>
        <time>2018-10-17T08:24:32Z</time>
      </trkpt>
      <trkpt lat="45.39158" lon="4.75504">
        <ele>153.95</ele>
        <time>2018-10-17T08:24:34Z</time>
      </trkpt>
      <trkpt lat="45.39143" lon="4.75509">
        <ele>153.95</ele>
        <time>2018-10-17T08:24:48Z</time>
      </trkpt>
      <trkpt lat="45.39132" lon="4.75513">
        <ele>153.95</ele>
        <time>2018-10-17T08:25:02Z</time>
      </trkpt>
      <trkpt lat="45.39118" lon="4.75518">
        <ele>153.95</ele>
        <time>2018-10-17T08:25:17Z</time>
      </trkpt>
      <trkpt lat="45.39101" lon="4.75523">
        <ele>153.95</ele>
        <time>2018-10-17T08:25:36Z</time>
      </trkpt>
      <trkpt lat="45.39086" lon="4.75527">
        <ele>153.47</ele>
        <time>2018-10-17T08:25:53Z</time>
      </trkpt>
      <trkpt lat="45.39069" lon="4.75532">
        <ele>153.95</ele>
        <time>2018-10-17T08:26:09Z</time>
      </trkpt>
      <trkpt lat="45.39053" lon="4.75538">
        <ele>153.47</ele>
        <time>2018-10-17T08:26:24Z</time>
      </trkpt>
      <trkpt lat="45.39045" lon="4.7554">
        <ele>153.47</ele>
        <time>2018-10-17T08:26:32Z</time>
      </trkpt>
      <trkpt lat="45.39026" lon="4.75546">
        <ele>153.47</ele>
        <time>2018-10-17T08:26:49Z</time>
      </trkpt>
      <trkpt lat="45.39011" lon="4.75548">
        <ele>153.95</ele>
        <time>2018-10-17T08:27:05Z</time>
      </trkpt>
      <trkpt lat="45.38996" lon="4.75553">
        <ele>153.95</ele>
        <time>2018-10-17T08:27:22Z</time>
      </trkpt>
      <trkpt lat="45.38982" lon="4.75555">
        <ele>153.47</ele>
        <time>2018-10-17T08:27:36Z</time>
      </trkpt>
      <trkpt lat="45.38967" lon="4.75558">
        <ele>153.47</ele>
        <time>2018-10-17T08:27:51Z</time>
      </trkpt>
      <trkpt lat="45.38949" lon="4.75562">
        <ele>153.95</ele>
        <time>2018-10-17T08:28:09Z</time>
      </trkpt>
      <trkpt lat="45.38936" lon="4.75563">
        <ele>153.47</ele>
        <time>2018-10-17T08:28:26Z</time>
      </trkpt>
      <trkpt lat="45.38935" lon="4.75568">
        <ele>153.95</ele>
        <time>2018-10-17T08:28:38Z</time>
      </trkpt>
      <trkpt lat="45.38933" lon="4.75568">
        <ele>153.95</ele>
        <time>2018-10-17T08:28:59Z</time>
      </trkpt>
      <trkpt lat="45.38933" lon="4.75567">
        <ele>153.47</ele>
        <time>2018-10-17T08:29:17Z</time>
      </trkpt>
      <trkpt lat="45.38932" lon="4.75569">
        <ele>153.47</ele>
        <time>2018-10-17T08:29:31Z</time>
      </trkpt>
      <trkpt lat="45.38932" lon="4.7557">
        <ele>153.47</ele>
        <time>2018-10-17T08:29:48Z</time>
      </trkpt>
      <trkpt lat="45.38933" lon="4.7557">
        <ele>153.47</ele>
        <time>2018-10-17T08:30:14Z</time>
      </trkpt>
      <trkpt lat="45.38933" lon="4.75569">
        <ele>152.51</ele>
        <time>2018-10-17T08:30:26Z</time>
      </trkpt>
      <trkpt lat="45.38932" lon="4.75569">
        <ele>153.47</ele>
        <time>2018-10-17T08:30:50Z</time>
      </trkpt>
      <trkpt lat="45.38932" lon="4.75569">
        <ele>153.47</ele>
        <time>2018-10-17T08:31:06Z</time>
      </trkpt>
      <trkpt lat="45.38932" lon="4.75569">
        <ele>153.47</ele>
        <time>2018-10-17T08:31:26Z</time>
      </trkpt>
      <trkpt lat="45.38928" lon="4.75569">
        <ele>153.47</ele>
        <time>2018-10-17T08:31:39Z</time>
      </trkpt>
      <trkpt lat="45.38927" lon="4.75569">
        <ele>150.58</ele>
        <time>2018-10-17T08:31:40Z</time>
      </trkpt>
      <trkpt lat="45.38926" lon="4.7557">
        <ele>153.47</ele>
        <time>2018-10-17T08:31:42Z</time>
      </trkpt>
      <trkpt lat="45.38922" lon="4.7557">
        <ele>153.47</ele>
        <time>2018-10-17T08:31:55Z</time>
      </trkpt>
      <trkpt lat="45.38918" lon="4.75569">
        <ele>153.47</ele>
        <time>2018-10-17T08:32:08Z</time>
      </trkpt>
      <trkpt lat="45.38906" lon="4.75571">
        <ele>153.47</ele>
        <time>2018-10-17T08:32:22Z</time>
      </trkpt>
      <trkpt lat="45.38894" lon="4.75573">
        <ele>153.47</ele>
        <time>2018-10-17T08:32:36Z</time>
      </trkpt>
      <trkpt lat="45.38881" lon="4.75575">
        <ele>153.47</ele>
        <time>2018-10-17T08:32:52Z</time>
      </trkpt>
      <trkpt lat="45.38867" lon="4.75576">
        <ele>153.47</ele>
        <time>2018-10-17T08:33:08Z</time>
      </trkpt>
      <trkpt lat="45.38853" lon="4.75579">
        <ele>153.47</ele>
        <time>2018-10-17T08:33:22Z</time>
      </trkpt>
      <trkpt lat="45.38835" lon="4.75583">
        <ele>153.47</ele>
        <time>2018-10-17T08:33:38Z</time>
      </trkpt>
      <trkpt lat="45.38818" lon="4.75586">
        <ele>153.47</ele>
        <time>2018-10-17T08:33:55Z</time>
      </trkpt>
      <trkpt lat="45.38811" lon="4.75586">
        <ele>153.47</ele>
        <time>2018-10-17T08:34:02Z</time>
      </trkpt>
      <trkpt lat="45.38808" lon="4.75587">
        <ele>153.47</ele>
        <time>2018-10-17T08:34:05Z</time>
      </trkpt>
      <trkpt lat="45.3879" lon="4.7559">
        <ele>153.47</ele>
        <time>2018-10-17T08:34:23Z</time>
      </trkpt>
      <trkpt lat="45.38774" lon="4.75593">
        <ele>152.99</ele>
        <time>2018-10-17T08:34:40Z</time>
      </trkpt>
      <trkpt lat="45.38758" lon="4.75595">
        <ele>153.47</ele>
        <time>2018-10-17T08:34:56Z</time>
      </trkpt>
      <trkpt lat="45.38739" lon="4.75597">
        <ele>153.47</ele>
        <time>2018-10-17T08:35:15Z</time>
      </trkpt>
      <trkpt lat="45.38722" lon="4.75599">
        <ele>153.95</ele>
        <time>2018-10-17T08:35:32Z</time>
      </trkpt>
      <trkpt lat="45.38704" lon="4.756">
        <ele>153.47</ele>
        <time>2018-10-17T08:35:50Z</time>
      </trkpt>
      <trkpt lat="45.38687" lon="4.756">
        <ele>153.47</ele>
        <time>2018-10-17T08:36:06Z</time>
      </trkpt>
      <trkpt lat="45.38678" lon="4.75599">
        <ele>153.47</ele>
        <time>2018-10-17T08:36:18Z</time>
      </trkpt>
      <trkpt lat="45.38673" lon="4.756">
        <ele>153.47</ele>
        <time>2018-10-17T08:36:24Z</time>
      </trkpt>
      <trkpt lat="45.38655" lon="4.75598">
        <ele>153.47</ele>
        <time>2018-10-17T08:36:42Z</time>
      </trkpt>
      <trkpt lat="45.38638" lon="4.75596">
        <ele>153.47</ele>
        <time>2018-10-17T08:36:59Z</time>
      </trkpt>
      <trkpt lat="45.38628" lon="4.75594">
        <ele>152.99</ele>
        <time>2018-10-17T08:37:10Z</time>
      </trkpt>
      <trkpt lat="45.38624" lon="4.75594">
        <ele>153.47</ele>
        <time>2018-10-17T08:37:14Z</time>
      </trkpt>
      <trkpt lat="45.38615" lon="4.75591">
        <ele>153.47</ele>
        <time>2018-10-17T08:37:23Z</time>
      </trkpt>
      <trkpt lat="45.38608" lon="4.7559">
        <ele>152.99</ele>
        <time>2018-10-17T08:37:30Z</time>
      </trkpt>
      <trkpt lat="45.3859" lon="4.75587">
        <ele>153.47</ele>
        <time>2018-10-17T08:37:48Z</time>
      </trkpt>
      <trkpt lat="45.3857" lon="4.75581">
        <ele>152.99</ele>
        <time>2018-10-17T08:38:07Z</time>
      </trkpt>
      <trkpt lat="45.38555" lon="4.75577">
        <ele>152.99</ele>
        <time>2018-10-17T08:38:21Z</time>
      </trkpt>
      <trkpt lat="45.3854" lon="4.75572">
        <ele>152.99</ele>
        <time>2018-10-17T08:38:37Z</time>
      </trkpt>
      <trkpt lat="45.38525" lon="4.75565">
        <ele>152.99</ele>
        <time>2018-10-17T08:38:53Z</time>
      </trkpt>
      <trkpt lat="45.38509" lon="4.75558">
        <ele>152.99</ele>
        <time>2018-10-17T08:39:10Z</time>
      </trkpt>
      <trkpt lat="45.38497" lon="4.75552">
        <ele>152.99</ele>
        <time>2018-10-17T08:39:24Z</time>
      </trkpt>
      <trkpt lat="45.38484" lon="4.75547">
        <ele>152.99</ele>
        <time>2018-10-17T08:39:38Z</time>
      </trkpt>
      <trkpt lat="45.38467" lon="4.75539">
        <ele>152.99</ele>
        <time>2018-10-17T08:39:54Z</time>
      </trkpt>
      <trkpt lat="45.38466" lon="4.75538">
        <ele>152.99</ele>
        <time>2018-10-17T08:39:55Z</time>
      </trkpt>
      <trkpt lat="45.38464" lon="4.75536">
        <ele>152.99</ele>
        <time>2018-10-17T08:39:58Z</time>
      </trkpt>
      <trkpt lat="45.38452" lon="4.75529">
        <ele>152.99</ele>
        <time>2018-10-17T08:40:14Z</time>
      </trkpt>
      <trkpt lat="45.38444" lon="4.75524">
        <ele>152.99</ele>
        <time>2018-10-17T08:40:27Z</time>
      </trkpt>
      <trkpt lat="45.38434" lon="4.75517">
        <ele>152.99</ele>
        <time>2018-10-17T08:40:42Z</time>
      </trkpt>
      <trkpt lat="45.38425" lon="4.75511">
        <ele>152.99</ele>
        <time>2018-10-17T08:40:55Z</time>
      </trkpt>
      <trkpt lat="45.38422" lon="4.7551">
        <ele>152.99</ele>
        <time>2018-10-17T08:40:59Z</time>
      </trkpt>
      <trkpt lat="45.38411" lon="4.75502">
        <ele>152.51</ele>
        <time>2018-10-17T08:41:16Z</time>
      </trkpt>
      <trkpt lat="45.384" lon="4.75495">
        <ele>152.51</ele>
        <time>2018-10-17T08:41:30Z</time>
      </trkpt>
      <trkpt lat="45.38392" lon="4.75488">
        <ele>152.51</ele>
        <time>2018-10-17T08:41:43Z</time>
      </trkpt>
      <trkpt lat="45.38388" lon="4.75487">
        <ele>152.51</ele>
        <time>2018-10-17T08:41:47Z</time>
      </trkpt>
      <trkpt lat="45.38375" lon="4.75478">
        <ele>152.51</ele>
        <time>2018-10-17T08:42:04Z</time>
      </trkpt>
      <trkpt lat="45.38362" lon="4.75468">
        <ele>152.51</ele>
        <time>2018-10-17T08:42:21Z</time>
      </trkpt>
      <trkpt lat="45.38354" lon="4.75461">
        <ele>152.51</ele>
        <time>2018-10-17T08:42:35Z</time>
      </trkpt>
      <trkpt lat="45.38343" lon="4.75453">
        <ele>152.51</ele>
        <time>2018-10-17T08:42:51Z</time>
      </trkpt>
      <trkpt lat="45.38332" lon="4.75446">
        <ele>152.51</ele>
        <time>2018-10-17T08:43:05Z</time>
      </trkpt>
      <trkpt lat="45.38321" lon="4.75438">
        <ele>152.51</ele>
        <time>2018-10-17T08:43:21Z</time>
      </trkpt>
      <trkpt lat="45.38312" lon="4.75431">
        <ele>152.51</ele>
        <time>2018-10-17T08:43:36Z</time>
      </trkpt>
      <trkpt lat="45.38302" lon="4.75424">
        <ele>152.51</ele>
        <time>2018-10-17T08:43:52Z</time>
      </trkpt>
      <trkpt lat="45.38292" lon="4.75422">
        <ele>152.51</ele>
        <time>2018-10-17T08:44:07Z</time>
      </trkpt>
      <trkpt lat="45.38287" lon="4.7542">
        <ele>152.03</ele>
        <time>2018-10-17T08:44:22Z</time>
      </trkpt>
      <trkpt lat="45.3828" lon="4.7542">
        <ele>152.51</ele>
        <time>2018-10-17T08:44:37Z</time>
      </trkpt>
      <trkpt lat="45.38275" lon="4.75421">
        <ele>152.51</ele>
        <time>2018-10-17T08:44:55Z</time>
      </trkpt>
      <trkpt lat="45.38265" lon="4.75421">
        <ele>152.51</ele>
        <time>2018-10-17T08:45:11Z</time>
      </trkpt>
      <trkpt lat="45.38264" lon="4.75421">
        <ele>152.51</ele>
        <time>2018-10-17T08:45:29Z</time>
      </trkpt>
      <trkpt lat="45.38263" lon="4.75423">
        <ele>152.51</ele>
        <time>2018-10-17T08:45:42Z</time>
      </trkpt>
      <trkpt lat="45.38263" lon="4.75423">
        <ele>152.51</ele>
        <time>2018-10-17T08:46:00Z</time>
      </trkpt>
      <trkpt lat="45.38263" lon="4.75424">
        <ele>152.51</ele>
        <time>2018-10-17T08:46:20Z</time>
      </trkpt>
      <trkpt lat="45.38263" lon="4.75424">
        <ele>152.51</ele>
        <time>2018-10-17T08:46:49Z</time>
      </trkpt>
      <trkpt lat="45.38263" lon="4.75425">
        <ele>152.03</ele>
        <time>2018-10-17T08:47:13Z</time>
      </trkpt>
      <trkpt lat="45.38263" lon="4.75425">
        <ele>152.03</ele>
        <time>2018-10-17T08:47:41Z</time>
      </trkpt>
      <trkpt lat="45.38263" lon="4.75425">
        <ele>152.03</ele>
        <time>2018-10-17T08:48:12Z</time>
      </trkpt>
      <trkpt lat="45.38263" lon="4.75426">
        <ele>152.03</ele>
        <time>2018-10-17T08:48:37Z</time>
      </trkpt>
      <trkpt lat="45.38263" lon="4.75425">
        <ele>152.03</ele>
        <time>2018-10-17T08:48:58Z</time>
      </trkpt>
      <trkpt lat="45.38259" lon="4.75428">
        <ele>152.03</ele>
        <time>2018-10-17T08:49:11Z</time>
      </trkpt>
      <trkpt lat="45.3825" lon="4.75434">
        <ele>152.03</ele>
        <time>2018-10-17T08:49:26Z</time>
      </trkpt>
      <trkpt lat="45.38242" lon="4.75441">
        <ele>152.03</ele>
        <time>2018-10-17T08:49:39Z</time>
      </trkpt>
      <trkpt lat="45.38234" lon="4.75446">
        <ele>152.03</ele>
        <time>2018-10-17T08:49:53Z</time>
      </trkpt>
      <trkpt lat="45.3823" lon="4.75449">
        <ele>152.03</ele>
        <time>2018-10-17T08:49:58Z</time>
      </trkpt>
      <trkpt lat="45.38223" lon="4.75457">
        <ele>152.03</ele>
        <time>2018-10-17T08:50:12Z</time>
      </trkpt>
      <trkpt lat="45.38213" lon="4.75465">
        <ele>152.03</ele>
        <time>2018-10-17T08:50:27Z</time>
      </trkpt>
      <trkpt lat="45.382" lon="4.75474">
        <ele>151.54</ele>
        <time>2018-10-17T08:50:45Z</time>
      </trkpt>
      <trkpt lat="45.38188" lon="4.75484">
        <ele>151.54</ele>
        <time>2018-10-17T08:51:00Z</time>
      </trkpt>
      <trkpt lat="45.38177" lon="4.75492">
        <ele>151.54</ele>
        <time>2018-10-17T08:51:15Z</time>
      </trkpt>
      <trkpt lat="45.38164" lon="4.75504">
        <ele>151.54</ele>
        <time>2018-10-17T08:51:32Z</time>
      </trkpt>
      <trkpt lat="45.38151" lon="4.75516">
        <ele>151.54</ele>
        <time>2018-10-17T08:51:48Z</time>
      </trkpt>
      <trkpt lat="45.38141" lon="4.75525">
        <ele>151.54</ele>
        <time>2018-10-17T08:52:02Z</time>
      </trkpt>
      <trkpt lat="45.38141" lon="4.75526">
        <ele>152.03</ele>
        <time>2018-10-17T08:52:03Z</time>
      </trkpt>
      <trkpt lat="45.38134" lon="4.75539">
        <ele>152.03</ele>
        <time>2018-10-17T08:52:16Z</time>
      </trkpt>
      <trkpt lat="45.38132" lon="4.75541">
        <ele>152.03</ele>
        <time>2018-10-17T08:52:18Z</time>
      </trkpt>
      <trkpt lat="45.38123" lon="4.75549">
        <ele>152.03</ele>
        <time>2018-10-17T08:52:33Z</time>
      </trkpt>
      <trkpt lat="45.38119" lon="4.75551">
        <ele>152.51</ele>
        <time>2018-10-17T08:52:48Z</time>
      </trkpt>
      <trkpt lat="45.38118" lon="4.75552">
        <ele>152.51</ele>
        <time>2018-10-17T08:53:06Z</time>
      </trkpt>
      <trkpt lat="45.38112" lon="4.75556">
        <ele>153.47</ele>
        <time>2018-10-17T08:53:13Z</time>
      </trkpt>
      <trkpt lat="45.38108" lon="4.75562">
        <ele>153.47</ele>
        <time>2018-10-17T08:53:18Z</time>
      </trkpt>
      <trkpt lat="45.38097" lon="4.75566">
        <ele>154.91</ele>
        <time>2018-10-17T08:53:34Z</time>
      </trkpt>
      <trkpt lat="45.38087" lon="4.75567">
        <ele>152.51</ele>
        <time>2018-10-17T08:53:49Z</time>
      </trkpt>
      <trkpt lat="45.38075" lon="4.75565">
        <ele>151.54</ele>
        <time>2018-10-17T08:54:04Z</time>
      </trkpt>
      <trkpt lat="45.38067" lon="4.75565">
        <ele>150.58</ele>
        <time>2018-10-17T08:54:13Z</time>
      </trkpt>
      <trkpt lat="45.38051" lon="4.75561">
        <ele>149.62</ele>
        <time>2018-10-17T08:54:29Z</time>
      </trkpt>
      <trkpt lat="45.38039" lon="4.75553">
        <ele>149.62</ele>
        <time>2018-10-17T08:54:44Z</time>
      </trkpt>
      <trkpt lat="45.38028" lon="4.75545">
        <ele>150.1</ele>
        <time>2018-10-17T08:54:59Z</time>
      </trkpt>
      <trkpt lat="45.38023" lon="4.75544">
        <ele>150.1</ele>
        <time>2018-10-17T08:55:13Z</time>
      </trkpt>
      <trkpt lat="45.38019" lon="4.75544">
        <ele>150.1</ele>
        <time>2018-10-17T08:55:25Z</time>
      </trkpt>
      <trkpt lat="45.38018" lon="4.75552">
        <ele>150.1</ele>
        <time>2018-10-17T08:55:39Z</time>
      </trkpt>
      <trkpt lat="45.38017" lon="4.75553">
        <ele>150.1</ele>
        <time>2018-10-17T08:55:40Z</time>
      </trkpt>
      <trkpt lat="45.38014" lon="4.75565">
        <ele>150.58</ele>
        <time>2018-10-17T08:55:52Z</time>
      </trkpt>
      <trkpt lat="45.38013" lon="4.75568">
        <ele>150.58</ele>
        <time>2018-10-17T08:56:09Z</time>
      </trkpt>
      <trkpt lat="45.38011" lon="4.7557">
        <ele>150.1</ele>
        <time>2018-10-17T08:56:25Z</time>
      </trkpt>
      <trkpt lat="45.38003" lon="4.75567">
        <ele>150.1</ele>
        <time>2018-10-17T08:56:39Z</time>
      </trkpt>
      <trkpt lat="45.37997" lon="4.75561">
        <ele>150.58</ele>
        <time>2018-10-17T08:56:53Z</time>
      </trkpt>
      <trkpt lat="45.37996" lon="4.75562">
        <ele>150.58</ele>
        <time>2018-10-17T08:57:08Z</time>
      </trkpt>
      <trkpt lat="45.37996" lon="4.75561">
        <ele>150.58</ele>
        <time>2018-10-17T08:57:23Z</time>
      </trkpt>
      <trkpt lat="45.37992" lon="4.7556">
        <ele>150.58</ele>
        <time>2018-10-17T08:57:37Z</time>
      </trkpt>
      <trkpt lat="45.37986" lon="4.75558">
        <ele>150.58</ele>
        <time>2018-10-17T08:57:49Z</time>
      </trkpt>
      <trkpt lat="45.3798" lon="4.75558">
        <ele>150.58</ele>
        <time>2018-10-17T08:58:04Z</time>
      </trkpt>
      <trkpt lat="45.37967" lon="4.75558">
        <ele>150.58</ele>
        <time>2018-10-17T08:58:20Z</time>
      </trkpt>
      <trkpt lat="45.37961" lon="4.7556">
        <ele>150.1</ele>
        <time>2018-10-17T08:58:34Z</time>
      </trkpt>
      <trkpt lat="45.37956" lon="4.75559">
        <ele>150.58</ele>
        <time>2018-10-17T08:58:52Z</time>
      </trkpt>
      <trkpt lat="45.37954" lon="4.75558">
        <ele>150.58</ele>
        <time>2018-10-17T08:59:10Z</time>
      </trkpt>
      <trkpt lat="45.37953" lon="4.75557">
        <ele>150.58</ele>
        <time>2018-10-17T08:59:32Z</time>
      </trkpt>
      <trkpt lat="45.37951" lon="4.75556">
        <ele>150.58</ele>
        <time>2018-10-17T08:59:45Z</time>
      </trkpt>
      <trkpt lat="45.37951" lon="4.75556">
        <ele>150.58</ele>
        <time>2018-10-17T09:00:04Z</time>
      </trkpt>
      <trkpt lat="45.37949" lon="4.75553">
        <ele>150.58</ele>
        <time>2018-10-17T09:00:19Z</time>
      </trkpt>
      <trkpt lat="45.37945" lon="4.75551">
        <ele>150.58</ele>
        <time>2018-10-17T09:00:38Z</time>
      </trkpt>
      <trkpt lat="45.37938" lon="4.75548">
        <ele>150.1</ele>
        <time>2018-10-17T09:00:50Z</time>
      </trkpt>
      <trkpt lat="45.37928" lon="4.75548">
        <ele>150.1</ele>
        <time>2018-10-17T09:01:03Z</time>
      </trkpt>
      <trkpt lat="45.37921" lon="4.75547">
        <ele>149.62</ele>
        <time>2018-10-17T09:01:15Z</time>
      </trkpt>
      <trkpt lat="45.37914" lon="4.75546">
        <ele>149.62</ele>
        <time>2018-10-17T09:01:28Z</time>
      </trkpt>
      <trkpt lat="45.37906" lon="4.75545">
        <ele>149.14</ele>
        <time>2018-10-17T09:01:41Z</time>
      </trkpt>
      <trkpt lat="45.37895" lon="4.75539">
        <ele>149.14</ele>
        <time>2018-10-17T09:01:55Z</time>
      </trkpt>
      <trkpt lat="45.37891" lon="4.75536">
        <ele>149.14</ele>
        <time>2018-10-17T09:01:59Z</time>
      </trkpt>
      <trkpt lat="45.37881" lon="4.75527">
        <ele>148.66</ele>
        <time>2018-10-17T09:02:16Z</time>
      </trkpt>
      <trkpt lat="45.37874" lon="4.75522">
        <ele>148.66</ele>
        <time>2018-10-17T09:02:31Z</time>
      </trkpt>
      <trkpt lat="45.37864" lon="4.75519">
        <ele>148.66</ele>
        <time>2018-10-17T09:02:46Z</time>
      </trkpt>
      <trkpt lat="45.37859" lon="4.75518">
        <ele>148.18</ele>
        <time>2018-10-17T09:03:02Z</time>
      </trkpt>
      <trkpt lat="45.37855" lon="4.75518">
        <ele>148.18</ele>
        <time>2018-10-17T09:03:23Z</time>
      </trkpt>
      <trkpt lat="45.37851" lon="4.75517">
        <ele>148.18</ele>
        <time>2018-10-17T09:03:37Z</time>
      </trkpt>
      <trkpt lat="45.37842" lon="4.75512">
        <ele>148.18</ele>
        <time>2018-10-17T09:03:49Z</time>
      </trkpt>
      <trkpt lat="45.37831" lon="4.75505">
        <ele>147.7</ele>
        <time>2018-10-17T09:04:03Z</time>
      </trkpt>
      <trkpt lat="45.37828" lon="4.75504">
        <ele>148.18</ele>
        <time>2018-10-17T09:04:16Z</time>
      </trkpt>
      <trkpt lat="45.37825" lon="4.75503">
        <ele>147.7</ele>
        <time>2018-10-17T09:04:33Z</time>
      </trkpt>
      <trkpt lat="45.37816" lon="4.755">
        <ele>147.7</ele>
        <time>2018-10-17T09:04:49Z</time>
      </trkpt>
      <trkpt lat="45.37806" lon="4.75497">
        <ele>147.7</ele>
        <time>2018-10-17T09:05:02Z</time>
      </trkpt>
      <trkpt lat="45.37792" lon="4.75492">
        <ele>147.7</ele>
        <time>2018-10-17T09:05:20Z</time>
      </trkpt>
      <trkpt lat="45.37782" lon="4.75488">
        <ele>147.7</ele>
        <time>2018-10-17T09:05:32Z</time>
      </trkpt>
      <trkpt lat="45.3777" lon="4.75484">
        <ele>147.22</ele>
        <time>2018-10-17T09:05:48Z</time>
      </trkpt>
      <trkpt lat="45.37758" lon="4.75482">
        <ele>147.22</ele>
        <time>2018-10-17T09:06:01Z</time>
      </trkpt>
      <trkpt lat="45.37746" lon="4.75477">
        <ele>146.74</ele>
        <time>2018-10-17T09:06:15Z</time>
      </trkpt>
      <trkpt lat="45.37738" lon="4.75473">
        <ele>146.74</ele>
        <time>2018-10-17T09:06:31Z</time>
      </trkpt>
      <trkpt lat="45.37725" lon="4.75469">
        <ele>146.74</ele>
        <time>2018-10-17T09:06:45Z</time>
      </trkpt>
      <trkpt lat="45.37715" lon="4.75465">
        <ele>146.74</ele>
        <time>2018-10-17T09:06:59Z</time>
      </trkpt>
      <trkpt lat="45.37704" lon="4.7546">
        <ele>146.74</ele>
        <time>2018-10-17T09:07:14Z</time>
      </trkpt>
      <trkpt lat="45.37692" lon="4.75457">
        <ele>146.74</ele>
        <time>2018-10-17T09:07:30Z</time>
      </trkpt>
      <trkpt lat="45.37676" lon="4.75457">
        <ele>146.74</ele>
        <time>2018-10-17T09:07:43Z</time>
      </trkpt>
      <trkpt lat="45.37663" lon="4.75453">
        <ele>146.74</ele>
        <time>2018-10-17T09:07:58Z</time>
      </trkpt>
      <trkpt lat="45.37648" lon="4.75446">
        <ele>146.74</ele>
        <time>2018-10-17T09:08:12Z</time>
      </trkpt>
      <trkpt lat="45.37638" lon="4.75443">
        <ele>146.26</ele>
        <time>2018-10-17T09:08:28Z</time>
      </trkpt>
      <trkpt lat="45.37628" lon="4.75439">
        <ele>146.26</ele>
        <time>2018-10-17T09:08:41Z</time>
      </trkpt>
      <trkpt lat="45.37617" lon="4.75435">
        <ele>146.26</ele>
        <time>2018-10-17T09:08:54Z</time>
      </trkpt>
      <trkpt lat="45.37611" lon="4.75437">
        <ele>146.26</ele>
        <time>2018-10-17T09:09:08Z</time>
      </trkpt>
      <trkpt lat="45.37602" lon="4.75435">
        <ele>147.22</ele>
        <time>2018-10-17T09:09:21Z</time>
      </trkpt>
      <trkpt lat="45.37599" lon="4.75434">
        <ele>147.7</ele>
        <time>2018-10-17T09:09:41Z</time>
      </trkpt>
      <trkpt lat="45.37598" lon="4.75432">
        <ele>147.7</ele>
        <time>2018-10-17T09:09:55Z</time>
      </trkpt>
      <trkpt lat="45.37597" lon="4.7543">
        <ele>147.7</ele>
        <time>2018-10-17T09:10:15Z</time>
      </trkpt>
      <trkpt lat="45.37596" lon="4.75427">
        <ele>148.18</ele>
        <time>2018-10-17T09:10:36Z</time>
      </trkpt>
      <trkpt lat="45.37597" lon="4.75418">
        <ele>148.18</ele>
        <time>2018-10-17T09:10:48Z</time>
      </trkpt>
      <trkpt lat="45.37596" lon="4.75415">
        <ele>148.18</ele>
        <time>2018-10-17T09:11:02Z</time>
      </trkpt>
      <trkpt lat="45.37595" lon="4.75414">
        <ele>148.18</ele>
        <time>2018-10-17T09:11:19Z</time>
      </trkpt>
      <trkpt lat="45.37595" lon="4.75413">
        <ele>148.18</ele>
        <time>2018-10-17T09:11:40Z</time>
      </trkpt>
      <trkpt lat="45.37598" lon="4.75409">
        <ele>147.22</ele>
        <time>2018-10-17T09:11:55Z</time>
      </trkpt>
      <trkpt lat="45.376" lon="4.75407">
        <ele>147.22</ele>
        <time>2018-10-17T09:11:59Z</time>
      </trkpt>
      <trkpt lat="45.37604" lon="4.75403">
        <ele>148.18</ele>
        <time>2018-10-17T09:12:13Z</time>
      </trkpt>
      <trkpt lat="45.37603" lon="4.75402">
        <ele>148.18</ele>
        <time>2018-10-17T09:12:27Z</time>
      </trkpt>
      <trkpt lat="45.37605" lon="4.75393">
        <ele>148.18</ele>
        <time>2018-10-17T09:12:40Z</time>
      </trkpt>
      <trkpt lat="45.37612" lon="4.75389">
        <ele>148.18</ele>
        <time>2018-10-17T09:12:53Z</time>
      </trkpt>
      <trkpt lat="45.37618" lon="4.75386">
        <ele>148.66</ele>
        <time>2018-10-17T09:13:10Z</time>
      </trkpt>
      <trkpt lat="45.37619" lon="4.75385">
        <ele>149.14</ele>
        <time>2018-10-17T09:13:23Z</time>
      </trkpt>
      <trkpt lat="45.37628" lon="4.75382">
        <ele>150.1</ele>
        <time>2018-10-17T09:13:36Z</time>
      </trkpt>
      <trkpt lat="45.37637" lon="4.7538">
        <ele>149.62</ele>
        <time>2018-10-17T09:13:49Z</time>
      </trkpt>
      <trkpt lat="45.37653" lon="4.75379">
        <ele>149.62</ele>
        <time>2018-10-17T09:14:05Z</time>
      </trkpt>
      <trkpt lat="45.37668" lon="4.75383">
        <ele>150.1</ele>
        <time>2018-10-17T09:14:23Z</time>
      </trkpt>
      <trkpt lat="45.37682" lon="4.75386">
        <ele>150.58</ele>
        <time>2018-10-17T09:14:38Z</time>
      </trkpt>
      <trkpt lat="45.37695" lon="4.75389">
        <ele>150.58</ele>
        <time>2018-10-17T09:14:55Z</time>
      </trkpt>
      <trkpt lat="45.37709" lon="4.75391">
        <ele>151.06</ele>
        <time>2018-10-17T09:15:12Z</time>
      </trkpt>
      <trkpt lat="45.37718" lon="4.75391">
        <ele>151.06</ele>
        <time>2018-10-17T09:15:27Z</time>
      </trkpt>
      <trkpt lat="45.37727" lon="4.75393">
        <ele>151.06</ele>
        <time>2018-10-17T09:15:39Z</time>
      </trkpt>
      <trkpt lat="45.37739" lon="4.75393">
        <ele>151.06</ele>
        <time>2018-10-17T09:15:55Z</time>
      </trkpt>
      <trkpt lat="45.37747" lon="4.7539">
        <ele>150.58</ele>
        <time>2018-10-17T09:16:10Z</time>
      </trkpt>
      <trkpt lat="45.37753" lon="4.75385">
        <ele>150.1</ele>
        <time>2018-10-17T09:16:23Z</time>
      </trkpt>
      <trkpt lat="45.37758" lon="4.75381">
        <ele>149.14</ele>
        <time>2018-10-17T09:16:38Z</time>
      </trkpt>
      <trkpt lat="45.3776" lon="4.75378">
        <ele>148.18</ele>
        <time>2018-10-17T09:16:44Z</time>
      </trkpt>
      <trkpt lat="45.37773" lon="4.75377">
        <ele>148.66</ele>
        <time>2018-10-17T09:17:00Z</time>
      </trkpt>
      <trkpt lat="45.37782" lon="4.75382">
        <ele>149.14</ele>
        <time>2018-10-17T09:17:15Z</time>
      </trkpt>
      <trkpt lat="45.37791" lon="4.75389">
        <ele>149.62</ele>
        <time>2018-10-17T09:17:32Z</time>
      </trkpt>
      <trkpt lat="45.37798" lon="4.75396">
        <ele>150.58</ele>
        <time>2018-10-17T09:17:46Z</time>
      </trkpt>
      <trkpt lat="45.37807" lon="4.75408">
        <ele>151.54</ele>
        <time>2018-10-17T09:18:02Z</time>
      </trkpt>
      <trkpt lat="45.37816" lon="4.75416">
        <ele>152.51</ele>
        <time>2018-10-17T09:18:16Z</time>
      </trkpt>
      <trkpt lat="45.37826" lon="4.75423">
        <ele>152.51</ele>
        <time>2018-10-17T09:18:31Z</time>
      </trkpt>
      <trkpt lat="45.37837" lon="4.75429">
        <ele>152.51</ele>
        <time>2018-10-17T09:18:46Z</time>
      </trkpt>
      <trkpt lat="45.37847" lon="4.75434">
        <ele>152.51</ele>
        <time>2018-10-17T09:18:57Z</time>
      </trkpt>
      <trkpt lat="45.37855" lon="4.75446">
        <ele>152.99</ele>
        <time>2018-10-17T09:19:12Z</time>
      </trkpt>
      <trkpt lat="45.37863" lon="4.75459">
        <ele>152.99</ele>
        <time>2018-10-17T09:19:29Z</time>
      </trkpt>
      <trkpt lat="45.3787" lon="4.7546">
        <ele>152.51</ele>
        <time>2018-10-17T09:19:35Z</time>
      </trkpt>
      <trkpt lat="45.37882" lon="4.75459">
        <ele>152.51</ele>
        <time>2018-10-17T09:19:49Z</time>
      </trkpt>
      <trkpt lat="45.37883" lon="4.75458">
        <ele>152.51</ele>
        <time>2018-10-17T09:19:53Z</time>
      </trkpt>
      <trkpt lat="45.37892" lon="4.75457">
        <ele>152.51</ele>
        <time>2018-10-17T09:20:03Z</time>
      </trkpt>
      <trkpt lat="45.37897" lon="4.75456">
        <ele>152.03</ele>
        <time>2018-10-17T09:20:09Z</time>
      </trkpt>
      <trkpt lat="45.37898" lon="4.75457">
        <ele>152.03</ele>
        <time>2018-10-17T09:20:11Z</time>
      </trkpt>
      <trkpt lat="45.37904" lon="4.75456">
        <ele>152.03</ele>
        <time>2018-10-17T09:20:27Z</time>
      </trkpt>
      <trkpt lat="45.37911" lon="4.75454">
        <ele>151.54</ele>
        <time>2018-10-17T09:20:41Z</time>
      </trkpt>
      <trkpt lat="45.37921" lon="4.75452">
        <ele>152.03</ele>
        <time>2018-10-17T09:20:55Z</time>
      </trkpt>
      <trkpt lat="45.37926" lon="4.75451">
        <ele>152.03</ele>
        <time>2018-10-17T09:21:08Z</time>
      </trkpt>
      <trkpt lat="45.37937" lon="4.75465">
        <ele>152.03</ele>
        <time>2018-10-17T09:21:22Z</time>
      </trkpt>
      <trkpt lat="45.3795" lon="4.75478">
        <ele>152.99</ele>
        <time>2018-10-17T09:21:35Z</time>
      </trkpt>
      <trkpt lat="45.3796" lon="4.75487">
        <ele>152.99</ele>
        <time>2018-10-17T09:21:50Z</time>
      </trkpt>
      <trkpt lat="45.37972" lon="4.75495">
        <ele>152.99</ele>
        <time>2018-10-17T09:22:04Z</time>
      </trkpt>
      <trkpt lat="45.37981" lon="4.75504">
        <ele>152.99</ele>
        <time>2018-10-17T09:22:18Z</time>
      </trkpt>
      <trkpt lat="45.37995" lon="4.75511">
        <ele>153.95</ele>
        <time>2018-10-17T09:22:33Z</time>
      </trkpt>
      <trkpt lat="45.37998" lon="4.75516">
        <ele>154.43</ele>
        <time>2018-10-17T09:22:45Z</time>
      </trkpt>
      <trkpt lat="45.38" lon="4.75517">
        <ele>154.91</ele>
        <time>2018-10-17T09:23:00Z</time>
      </trkpt>
      <trkpt lat="45.38002" lon="4.75517">
        <ele>154.91</ele>
        <time>2018-10-17T09:23:23Z</time>
      </trkpt>
      <trkpt lat="45.38002" lon="4.75517">
        <ele>154.91</ele>
        <time>2018-10-17T09:23:40Z</time>
      </trkpt>
      <trkpt lat="45.38" lon="4.7552">
        <ele>154.91</ele>
        <time>2018-10-17T09:23:57Z</time>
      </trkpt>
      <trkpt lat="45.38" lon="4.75522">
        <ele>155.39</ele>
        <time>2018-10-17T09:24:19Z</time>
      </trkpt>
      <trkpt lat="45.38003" lon="4.75528">
        <ele>155.39</ele>
        <time>2018-10-17T09:24:33Z</time>
      </trkpt>
      <trkpt lat="45.38006" lon="4.75529">
        <ele>155.39</ele>
        <time>2018-10-17T09:24:51Z</time>
      </trkpt>
      <trkpt lat="45.38007" lon="4.75532">
        <ele>155.39</ele>
        <time>2018-10-17T09:25:07Z</time>
      </trkpt>
      <trkpt lat="45.38009" lon="4.75533">
        <ele>155.39</ele>
        <time>2018-10-17T09:25:24Z</time>
      </trkpt>
      <trkpt lat="45.38013" lon="4.75534">
        <ele>154.91</ele>
        <time>2018-10-17T09:25:38Z</time>
      </trkpt>
      <trkpt lat="45.38021" lon="4.75533">
        <ele>153.47</ele>
        <time>2018-10-17T09:25:51Z</time>
      </trkpt>
      <trkpt lat="45.38031" lon="4.75536">
        <ele>152.99</ele>
        <time>2018-10-17T09:26:06Z</time>
      </trkpt>
      <trkpt lat="45.38032" lon="4.75536">
        <ele>152.99</ele>
        <time>2018-10-17T09:26:07Z</time>
      </trkpt>
      <trkpt lat="45.38037" lon="4.75536">
        <ele>152.99</ele>
        <time>2018-10-17T09:26:12Z</time>
      </trkpt>
      <trkpt lat="45.38051" lon="4.75537">
        <ele>152.51</ele>
        <time>2018-10-17T09:26:27Z</time>
      </trkpt>
      <trkpt lat="45.38064" lon="4.75541">
        <ele>152.51</ele>
        <time>2018-10-17T09:26:43Z</time>
      </trkpt>
      <trkpt lat="45.38078" lon="4.7554">
        <ele>152.51</ele>
        <time>2018-10-17T09:26:58Z</time>
      </trkpt>
      <trkpt lat="45.38088" lon="4.75533">
        <ele>152.03</ele>
        <time>2018-10-17T09:27:13Z</time>
      </trkpt>
      <trkpt lat="45.38096" lon="4.75524">
        <ele>152.03</ele>
        <time>2018-10-17T09:27:26Z</time>
      </trkpt>
      <trkpt lat="45.38103" lon="4.75517">
        <ele>152.03</ele>
        <time>2018-10-17T09:27:36Z</time>
      </trkpt>
      <trkpt lat="45.38107" lon="4.75513">
        <ele>152.03</ele>
        <time>2018-10-17T09:27:41Z</time>
      </trkpt>
      <trkpt lat="45.38109" lon="4.75511">
        <ele>152.03</ele>
        <time>2018-10-17T09:27:44Z</time>
      </trkpt>
      <trkpt lat="45.3812" lon="4.755">
        <ele>152.03</ele>
        <time>2018-10-17T09:27:59Z</time>
      </trkpt>
      <trkpt lat="45.38128" lon="4.75492">
        <ele>152.03</ele>
        <time>2018-10-17T09:28:11Z</time>
      </trkpt>
      <trkpt lat="45.38141" lon="4.75481">
        <ele>152.03</ele>
        <time>2018-10-17T09:28:29Z</time>
      </trkpt>
      <trkpt lat="45.38141" lon="4.7548">
        <ele>152.03</ele>
        <time>2018-10-17T09:28:30Z</time>
      </trkpt>
      <trkpt lat="45.38151" lon="4.75472">
        <ele>151.54</ele>
        <time>2018-10-17T09:28:43Z</time>
      </trkpt>
      <trkpt lat="45.38153" lon="4.7547">
        <ele>151.54</ele>
        <time>2018-10-17T09:28:45Z</time>
      </trkpt>
      <trkpt lat="45.38165" lon="4.75458">
        <ele>151.54</ele>
        <time>2018-10-17T09:29:01Z</time>
      </trkpt>
      <trkpt lat="45.38176" lon="4.75448">
        <ele>151.54</ele>
        <time>2018-10-17T09:29:15Z</time>
      </trkpt>
      <trkpt lat="45.3818" lon="4.75445">
        <ele>151.54</ele>
        <time>2018-10-17T09:29:20Z</time>
      </trkpt>
      <trkpt lat="45.3819" lon="4.75436">
        <ele>151.54</ele>
        <time>2018-10-17T09:29:34Z</time>
      </trkpt>
      <trkpt lat="45.382" lon="4.75427">
        <ele>151.54</ele>
        <time>2018-10-17T09:29:48Z</time>
      </trkpt>
      <trkpt lat="45.38208" lon="4.75415">
        <ele>151.54</ele>
        <time>2018-10-17T09:30:01Z</time>
      </trkpt>
      <trkpt lat="45.38213" lon="4.75403">
        <ele>151.06</ele>
        <time>2018-10-17T09:30:13Z</time>
      </trkpt>
      <trkpt lat="45.38216" lon="4.75396">
        <ele>150.58</ele>
        <time>2018-10-17T09:30:26Z</time>
      </trkpt>
      <trkpt lat="45.38217" lon="4.75386">
        <ele>150.1</ele>
        <time>2018-10-17T09:30:42Z</time>
      </trkpt>
      <trkpt lat="45.38218" lon="4.75377">
        <ele>150.1</ele>
        <time>2018-10-17T09:30:56Z</time>
      </trkpt>
      <trkpt lat="45.3822" lon="4.75362">
        <ele>150.1</ele>
        <time>2018-10-17T09:31:10Z</time>
      </trkpt>
      <trkpt lat="45.38224" lon="4.75346">
        <ele>150.1</ele>
        <time>2018-10-17T09:31:26Z</time>
      </trkpt>
      <trkpt lat="45.38227" lon="4.75333">
        <ele>149.62</ele>
        <time>2018-10-17T09:31:38Z</time>
      </trkpt>
      <trkpt lat="45.38233" lon="4.75321">
        <ele>149.62</ele>
        <time>2018-10-17T09:31:51Z</time>
      </trkpt>
      <trkpt lat="45.38237" lon="4.75312">
        <ele>149.14</ele>
        <time>2018-10-17T09:32:03Z</time>
      </trkpt>
      <trkpt lat="45.38241" lon="4.753">
        <ele>149.14</ele>
        <time>2018-10-17T09:32:20Z</time>
      </trkpt>
      <trkpt lat="45.38241" lon="4.75301">
        <ele>149.14</ele>
        <time>2018-10-17T09:32:36Z</time>
      </trkpt>
      <trkpt lat="45.38243" lon="4.75297">
        <ele>149.62</ele>
        <time>2018-10-17T09:32:49Z</time>
      </trkpt>
      <trkpt lat="45.38246" lon="4.75294">
        <ele>149.14</ele>
        <time>2018-10-17T09:33:04Z</time>
      </trkpt>
      <trkpt lat="45.38251" lon="4.75286">
        <ele>149.14</ele>
        <time>2018-10-17T09:33:18Z</time>
      </trkpt>
      <trkpt lat="45.38258" lon="4.75277">
        <ele>148.66</ele>
        <time>2018-10-17T09:33:31Z</time>
      </trkpt>
      <trkpt lat="45.3826" lon="4.75275">
        <ele>148.66</ele>
        <time>2018-10-17T09:33:34Z</time>
      </trkpt>
      <trkpt lat="45.3827" lon="4.75272">
        <ele>148.66</ele>
        <time>2018-10-17T09:33:48Z</time>
      </trkpt>
      <trkpt lat="45.38278" lon="4.75268">
        <ele>148.66</ele>
        <time>2018-10-17T09:34:01Z</time>
      </trkpt>
      <trkpt lat="45.38284" lon="4.75266">
        <ele>148.66</ele>
        <time>2018-10-17T09:34:13Z</time>
      </trkpt>
      <trkpt lat="45.3829" lon="4.75264">
        <ele>148.66</ele>
        <time>2018-10-17T09:34:28Z</time>
      </trkpt>
      <trkpt lat="45.38298" lon="4.75261">
        <ele>148.66</ele>
        <time>2018-10-17T09:34:41Z</time>
      </trkpt>
      <trkpt lat="45.38308" lon="4.75256">
        <ele>148.66</ele>
        <time>2018-10-17T09:34:55Z</time>
      </trkpt>
      <trkpt lat="45.38317" lon="4.75251">
        <ele>148.66</ele>
        <time>2018-10-17T09:35:10Z</time>
      </trkpt>
      <trkpt lat="45.38328" lon="4.75249">
        <ele>148.18</ele>
        <time>2018-10-17T09:35:25Z</time>
      </trkpt>
      <trkpt lat="45.38331" lon="4.75248">
        <ele>148.66</ele>
        <time>2018-10-17T09:35:28Z</time>
      </trkpt>
      <trkpt lat="45.38343" lon="4.75242">
        <ele>148.66</ele>
        <time>2018-10-17T09:35:43Z</time>
      </trkpt>
      <trkpt lat="45.38344" lon="4.75242">
        <ele>148.66</ele>
        <time>2018-10-17T09:35:44Z</time>
      </trkpt>
      <trkpt lat="45.38352" lon="4.75237">
        <ele>148.66</ele>
        <time>2018-10-17T09:35:58Z</time>
      </trkpt>
      <trkpt lat="45.38361" lon="4.75233">
        <ele>148.66</ele>
        <time>2018-10-17T09:36:13Z</time>
      </trkpt>
      <trkpt lat="45.38366" lon="4.75229">
        <ele>149.14</ele>
        <time>2018-10-17T09:36:27Z</time>
      </trkpt>
      <trkpt lat="45.38372" lon="4.75222">
        <ele>149.14</ele>
        <time>2018-10-17T09:36:43Z</time>
      </trkpt>
      <trkpt lat="45.38382" lon="4.7522">
        <ele>149.14</ele>
        <time>2018-10-17T09:36:58Z</time>
      </trkpt>
      <trkpt lat="45.38388" lon="4.75216">
        <ele>149.14</ele>
        <time>2018-10-17T09:37:12Z</time>
      </trkpt>
      <trkpt lat="45.38395" lon="4.7521">
        <ele>149.14</ele>
        <time>2018-10-17T09:37:27Z</time>
      </trkpt>
      <trkpt lat="45.38405" lon="4.75199">
        <ele>149.14</ele>
        <time>2018-10-17T09:37:41Z</time>
      </trkpt>
      <trkpt lat="45.3841" lon="4.75193">
        <ele>149.14</ele>
        <time>2018-10-17T09:37:54Z</time>
      </trkpt>
      <trkpt lat="45.38419" lon="4.75182">
        <ele>149.14</ele>
        <time>2018-10-17T09:38:07Z</time>
      </trkpt>
      <trkpt lat="45.38423" lon="4.75163">
        <ele>149.62</ele>
        <time>2018-10-17T09:38:24Z</time>
      </trkpt>
      <trkpt lat="45.38426" lon="4.75152">
        <ele>149.62</ele>
        <time>2018-10-17T09:38:40Z</time>
      </trkpt>
      <trkpt lat="45.38428" lon="4.75138">
        <ele>149.14</ele>
        <time>2018-10-17T09:38:52Z</time>
      </trkpt>
      <trkpt lat="45.38427" lon="4.75119">
        <ele>149.14</ele>
        <time>2018-10-17T09:39:10Z</time>
      </trkpt>
      <trkpt lat="45.38426" lon="4.75105">
        <ele>149.14</ele>
        <time>2018-10-17T09:39:25Z</time>
      </trkpt>
      <trkpt lat="45.38426" lon="4.75097">
        <ele>149.14</ele>
        <time>2018-10-17T09:39:37Z</time>
      </trkpt>
      <trkpt lat="45.38426" lon="4.7509">
        <ele>149.14</ele>
        <time>2018-10-17T09:39:51Z</time>
      </trkpt>
      <trkpt lat="45.38425" lon="4.75078">
        <ele>149.14</ele>
        <time>2018-10-17T09:40:05Z</time>
      </trkpt>
      <trkpt lat="45.38424" lon="4.75075">
        <ele>149.14</ele>
        <time>2018-10-17T09:40:23Z</time>
      </trkpt>
      <trkpt lat="45.38425" lon="4.75074">
        <ele>149.14</ele>
        <time>2018-10-17T09:40:43Z</time>
      </trkpt>
      <trkpt lat="45.38424" lon="4.75074">
        <ele>148.66</ele>
        <time>2018-10-17T09:41:03Z</time>
      </trkpt>
      <trkpt lat="45.38422" lon="4.75073">
        <ele>148.66</ele>
        <time>2018-10-17T09:41:17Z</time>
      </trkpt>
      <trkpt lat="45.38422" lon="4.75072">
        <ele>148.66</ele>
        <time>2018-10-17T09:41:35Z</time>
      </trkpt>
      <trkpt lat="45.38423" lon="4.75072">
        <ele>148.66</ele>
        <time>2018-10-17T09:42:00Z</time>
      </trkpt>
      <trkpt lat="45.38423" lon="4.7507">
        <ele>148.18</ele>
        <time>2018-10-17T09:42:24Z</time>
      </trkpt>
      <trkpt lat="45.38423" lon="4.7507">
        <ele>148.66</ele>
        <time>2018-10-17T09:42:44Z</time>
      </trkpt>
      <trkpt lat="45.38417" lon="4.75063">
        <ele>148.66</ele>
        <time>2018-10-17T09:43:02Z</time>
      </trkpt>
      <trkpt lat="45.38414" lon="4.75048">
        <ele>150.1</ele>
        <time>2018-10-17T09:43:17Z</time>
      </trkpt>
      <trkpt lat="45.38414" lon="4.75035">
        <ele>150.58</ele>
        <time>2018-10-17T09:43:32Z</time>
      </trkpt>
      <trkpt lat="45.38419" lon="4.75029">
        <ele>150.58</ele>
        <time>2018-10-17T09:43:47Z</time>
      </trkpt>
      <trkpt lat="45.38421" lon="4.75027">
        <ele>150.58</ele>
        <time>2018-10-17T09:44:05Z</time>
      </trkpt>
      <trkpt lat="45.38421" lon="4.75028">
        <ele>150.58</ele>
        <time>2018-10-17T09:44:06Z</time>
      </trkpt>
      <trkpt lat="45.38422" lon="4.75035">
        <ele>149.62</ele>
        <time>2018-10-17T09:44:19Z</time>
      </trkpt>
      <trkpt lat="45.38423" lon="4.75035">
        <ele>150.58</ele>
        <time>2018-10-17T09:44:37Z</time>
      </trkpt>
      <trkpt lat="45.38425" lon="4.75035">
        <ele>150.1</ele>
        <time>2018-10-17T09:45:08Z</time>
      </trkpt>
    </trkseg>
  </trk>
</gpx>